<?xml version="1.0" encoding="UTF-8"?>
<gpx xmlns:xsi="http://www.w3.org/2001/XMLSchema-instance" xsi:schemaLocation="http://www.topografix.com/GPX/1/1 http://www.topografix.com/GPX/1/1/gpx.xsd" creator="StravaGPX" version="1.1" xmlns="http://www.topografix.com/GPX/1/1">
 <metadata>
  <time>2025-09-11T12:40:34Z</time>
 </metadata>
 <trk>
  <name>Hill and coast GPS elevation</name>
  <type>walking</type>
  <trkseg>
   <trkpt lat="53.4511150" lon="-6.1570190">
    <ele>9.0</ele>
    <time>2025-09-11T12:40:34Z</time>
   </trkpt>
   <trkpt lat="53.4511100" lon="-6.1570940">
    <ele>8.9</ele>
    <time>2025-09-11T12:40:46Z</time>
   </trkpt>
   <trkpt lat="53.4510710" lon="-6.1572230">
    <ele>8.9</ele>
    <time>2025-09-11T12:40:52Z</time>
   </trkpt>
   <trkpt lat="53.4509770" lon="-6.1572400">
    <ele>8.8</ele>
    <time>2025-09-11T12:40:57Z</time>
   </trkpt>
   <trkpt lat="53.4509060" lon="-6.1572060">
    <ele>8.7</ele>
    <time>2025-09-11T12:41:02Z</time>
   </trkpt>
   <trkpt lat="53.4508480" lon="-6.1571570">
    <ele>8.7</ele>
    <time>2025-09-11T12:41:08Z</time>
   </trkpt>
   <trkpt lat="53.4507890" lon="-6.1571500">
    <ele>8.6</ele>
    <time>2025-09-11T12:41:13Z</time>
   </trkpt>
   <trkpt lat="53.4507410" lon="-6.1571480">
    <ele>8.6</ele>
    <time>2025-09-11T12:41:19Z</time>
   </trkpt>
   <trkpt lat="53.4507120" lon="-6.1570840">
    <ele>8.6</ele>
    <time>2025-09-11T12:41:24Z</time>
   </trkpt>
   <trkpt lat="53.4506570" lon="-6.1570680">
    <ele>8.8</ele>
    <time>2025-09-11T12:41:30Z</time>
   </trkpt>
   <trkpt lat="53.4506010" lon="-6.1570690">
    <ele>8.9</ele>
    <time>2025-09-11T12:41:35Z</time>
   </trkpt>
   <trkpt lat="53.4505430" lon="-6.1570030">
    <ele>8.9</ele>
    <time>2025-09-11T12:41:41Z</time>
   </trkpt>
   <trkpt lat="53.4504990" lon="-6.1569500">
    <ele>8.9</ele>
    <time>2025-09-11T12:41:46Z</time>
   </trkpt>
   <trkpt lat="53.4504520" lon="-6.1569290">
    <ele>9.7</ele>
    <time>2025-09-11T12:41:52Z</time>
   </trkpt>
   <trkpt lat="53.4504070" lon="-6.1569160">
    <ele>10.1</ele>
    <time>2025-09-11T12:41:58Z</time>
   </trkpt>
   <trkpt lat="53.4503570" lon="-6.1569240">
    <ele>10.9</ele>
    <time>2025-09-11T12:42:06Z</time>
   </trkpt>
   <trkpt lat="53.4503260" lon="-6.1568640">
    <ele>14.6</ele>
    <time>2025-09-11T12:42:28Z</time>
   </trkpt>
   <trkpt lat="53.4502860" lon="-6.1569010">
    <ele>15.6</ele>
    <time>2025-09-11T12:42:38Z</time>
   </trkpt>
   <trkpt lat="53.4502310" lon="-6.1569380">
    <ele>15.9</ele>
    <time>2025-09-11T12:42:44Z</time>
   </trkpt>
   <trkpt lat="53.4501780" lon="-6.1569510">
    <ele>15.8</ele>
    <time>2025-09-11T12:42:49Z</time>
   </trkpt>
   <trkpt lat="53.4501760" lon="-6.1568710">
    <ele>15.8</ele>
    <time>2025-09-11T12:42:54Z</time>
   </trkpt>
   <trkpt lat="53.4501080" lon="-6.1568990">
    <ele>15.8</ele>
    <time>2025-09-11T12:42:59Z</time>
   </trkpt>
   <trkpt lat="53.4500380" lon="-6.1569280">
    <ele>15.8</ele>
    <time>2025-09-11T12:43:05Z</time>
   </trkpt>
   <trkpt lat="53.4499750" lon="-6.1569500">
    <ele>15.7</ele>
    <time>2025-09-11T12:43:10Z</time>
   </trkpt>
   <trkpt lat="53.4499050" lon="-6.1569580">
    <ele>15.5</ele>
    <time>2025-09-11T12:43:15Z</time>
   </trkpt>
   <trkpt lat="53.4498420" lon="-6.1569570">
    <ele>15.6</ele>
    <time>2025-09-11T12:43:20Z</time>
   </trkpt>
   <trkpt lat="53.4497810" lon="-6.1569670">
    <ele>15.5</ele>
    <time>2025-09-11T12:43:25Z</time>
   </trkpt>
   <trkpt lat="53.4497210" lon="-6.1569970">
    <ele>15.4</ele>
    <time>2025-09-11T12:43:30Z</time>
   </trkpt>
   <trkpt lat="53.4496530" lon="-6.1569820">
    <ele>15.3</ele>
    <time>2025-09-11T12:43:36Z</time>
   </trkpt>
   <trkpt lat="53.4495910" lon="-6.1570480">
    <ele>15.5</ele>
    <time>2025-09-11T12:43:41Z</time>
   </trkpt>
   <trkpt lat="53.4495920" lon="-6.1572180">
    <ele>15.9</ele>
    <time>2025-09-11T12:43:46Z</time>
   </trkpt>
   <trkpt lat="53.4496110" lon="-6.1573500">
    <ele>15.9</ele>
    <time>2025-09-11T12:43:52Z</time>
   </trkpt>
   <trkpt lat="53.4496230" lon="-6.1574630">
    <ele>16.1</ele>
    <time>2025-09-11T12:43:57Z</time>
   </trkpt>
   <trkpt lat="53.4496240" lon="-6.1575740">
    <ele>16.1</ele>
    <time>2025-09-11T12:44:02Z</time>
   </trkpt>
   <trkpt lat="53.4496310" lon="-6.1576860">
    <ele>15.9</ele>
    <time>2025-09-11T12:44:08Z</time>
   </trkpt>
   <trkpt lat="53.4496420" lon="-6.1577850">
    <ele>15.1</ele>
    <time>2025-09-11T12:44:13Z</time>
   </trkpt>
   <trkpt lat="53.4496520" lon="-6.1578830">
    <ele>15.0</ele>
    <time>2025-09-11T12:44:18Z</time>
   </trkpt>
   <trkpt lat="53.4496400" lon="-6.1579860">
    <ele>14.9</ele>
    <time>2025-09-11T12:44:23Z</time>
   </trkpt>
   <trkpt lat="53.4496100" lon="-6.1580630">
    <ele>15.0</ele>
    <time>2025-09-11T12:44:28Z</time>
   </trkpt>
   <trkpt lat="53.4495600" lon="-6.1581290">
    <ele>14.4</ele>
    <time>2025-09-11T12:44:33Z</time>
   </trkpt>
   <trkpt lat="53.4494980" lon="-6.1582190">
    <ele>14.2</ele>
    <time>2025-09-11T12:44:39Z</time>
   </trkpt>
   <trkpt lat="53.4494250" lon="-6.1582180">
    <ele>15.1</ele>
    <time>2025-09-11T12:44:44Z</time>
   </trkpt>
   <trkpt lat="53.4493540" lon="-6.1581890">
    <ele>15.5</ele>
    <time>2025-09-11T12:44:49Z</time>
   </trkpt>
   <trkpt lat="53.4492850" lon="-6.1581750">
    <ele>15.7</ele>
    <time>2025-09-11T12:44:54Z</time>
   </trkpt>
   <trkpt lat="53.4492160" lon="-6.1582030">
    <ele>15.8</ele>
    <time>2025-09-11T12:44:59Z</time>
   </trkpt>
   <trkpt lat="53.4491480" lon="-6.1582300">
    <ele>15.8</ele>
    <time>2025-09-11T12:45:04Z</time>
   </trkpt>
   <trkpt lat="53.4490850" lon="-6.1582400">
    <ele>15.8</ele>
    <time>2025-09-11T12:45:10Z</time>
   </trkpt>
   <trkpt lat="53.4490180" lon="-6.1582420">
    <ele>15.8</ele>
    <time>2025-09-11T12:45:15Z</time>
   </trkpt>
   <trkpt lat="53.4489560" lon="-6.1582380">
    <ele>15.8</ele>
    <time>2025-09-11T12:45:20Z</time>
   </trkpt>
   <trkpt lat="53.4488930" lon="-6.1582490">
    <ele>15.8</ele>
    <time>2025-09-11T12:45:25Z</time>
   </trkpt>
   <trkpt lat="53.4488310" lon="-6.1582380">
    <ele>15.8</ele>
    <time>2025-09-11T12:45:30Z</time>
   </trkpt>
   <trkpt lat="53.4487610" lon="-6.1582580">
    <ele>15.8</ele>
    <time>2025-09-11T12:45:35Z</time>
   </trkpt>
   <trkpt lat="53.4486960" lon="-6.1582610">
    <ele>15.8</ele>
    <time>2025-09-11T12:45:41Z</time>
   </trkpt>
   <trkpt lat="53.4486230" lon="-6.1582510">
    <ele>15.8</ele>
    <time>2025-09-11T12:45:46Z</time>
   </trkpt>
   <trkpt lat="53.4485570" lon="-6.1582600">
    <ele>15.8</ele>
    <time>2025-09-11T12:45:51Z</time>
   </trkpt>
   <trkpt lat="53.4484900" lon="-6.1582790">
    <ele>16.2</ele>
    <time>2025-09-11T12:45:56Z</time>
   </trkpt>
   <trkpt lat="53.4484300" lon="-6.1582790">
    <ele>16.1</ele>
    <time>2025-09-11T12:46:01Z</time>
   </trkpt>
   <trkpt lat="53.4483680" lon="-6.1582770">
    <ele>16.5</ele>
    <time>2025-09-11T12:46:06Z</time>
   </trkpt>
   <trkpt lat="53.4483130" lon="-6.1582630">
    <ele>17.0</ele>
    <time>2025-09-11T12:46:12Z</time>
   </trkpt>
   <trkpt lat="53.4482540" lon="-6.1582820">
    <ele>17.4</ele>
    <time>2025-09-11T12:46:17Z</time>
   </trkpt>
   <trkpt lat="53.4481860" lon="-6.1582890">
    <ele>18.0</ele>
    <time>2025-09-11T12:46:22Z</time>
   </trkpt>
   <trkpt lat="53.4481200" lon="-6.1583000">
    <ele>18.0</ele>
    <time>2025-09-11T12:46:27Z</time>
   </trkpt>
   <trkpt lat="53.4480570" lon="-6.1583330">
    <ele>17.9</ele>
    <time>2025-09-11T12:46:32Z</time>
   </trkpt>
   <trkpt lat="53.4479970" lon="-6.1583450">
    <ele>18.4</ele>
    <time>2025-09-11T12:46:38Z</time>
   </trkpt>
   <trkpt lat="53.4479290" lon="-6.1583300">
    <ele>18.6</ele>
    <time>2025-09-11T12:46:43Z</time>
   </trkpt>
   <trkpt lat="53.4478590" lon="-6.1583170">
    <ele>18.7</ele>
    <time>2025-09-11T12:46:48Z</time>
   </trkpt>
   <trkpt lat="53.4477930" lon="-6.1583190">
    <ele>18.7</ele>
    <time>2025-09-11T12:46:53Z</time>
   </trkpt>
   <trkpt lat="53.4477340" lon="-6.1583520">
    <ele>18.7</ele>
    <time>2025-09-11T12:46:58Z</time>
   </trkpt>
   <trkpt lat="53.4476760" lon="-6.1583720">
    <ele>18.3</ele>
    <time>2025-09-11T12:47:03Z</time>
   </trkpt>
   <trkpt lat="53.4476130" lon="-6.1583970">
    <ele>18.0</ele>
    <time>2025-09-11T12:47:08Z</time>
   </trkpt>
   <trkpt lat="53.4475510" lon="-6.1583980">
    <ele>18.0</ele>
    <time>2025-09-11T12:47:13Z</time>
   </trkpt>
   <trkpt lat="53.4474890" lon="-6.1583890">
    <ele>17.9</ele>
    <time>2025-09-11T12:47:19Z</time>
   </trkpt>
   <trkpt lat="53.4474280" lon="-6.1583920">
    <ele>17.8</ele>
    <time>2025-09-11T12:47:24Z</time>
   </trkpt>
   <trkpt lat="53.4473760" lon="-6.1583990">
    <ele>17.8</ele>
    <time>2025-09-11T12:47:29Z</time>
   </trkpt>
   <trkpt lat="53.4473200" lon="-6.1583710">
    <ele>18.1</ele>
    <time>2025-09-11T12:47:34Z</time>
   </trkpt>
   <trkpt lat="53.4472530" lon="-6.1583650">
    <ele>18.3</ele>
    <time>2025-09-11T12:47:40Z</time>
   </trkpt>
   <trkpt lat="53.4471810" lon="-6.1583630">
    <ele>18.0</ele>
    <time>2025-09-11T12:47:45Z</time>
   </trkpt>
   <trkpt lat="53.4471130" lon="-6.1583610">
    <ele>18.7</ele>
    <time>2025-09-11T12:47:50Z</time>
   </trkpt>
   <trkpt lat="53.4470470" lon="-6.1583540">
    <ele>18.7</ele>
    <time>2025-09-11T12:47:55Z</time>
   </trkpt>
   <trkpt lat="53.4469890" lon="-6.1583530">
    <ele>18.2</ele>
    <time>2025-09-11T12:48:01Z</time>
   </trkpt>
   <trkpt lat="53.4469180" lon="-6.1583370">
    <ele>18.5</ele>
    <time>2025-09-11T12:48:06Z</time>
   </trkpt>
   <trkpt lat="53.4468700" lon="-6.1583130">
    <ele>18.8</ele>
    <time>2025-09-11T12:48:11Z</time>
   </trkpt>
   <trkpt lat="53.4468190" lon="-6.1582870">
    <ele>19.1</ele>
    <time>2025-09-11T12:48:16Z</time>
   </trkpt>
   <trkpt lat="53.4467640" lon="-6.1582590">
    <ele>19.4</ele>
    <time>2025-09-11T12:48:22Z</time>
   </trkpt>
   <trkpt lat="53.4466870" lon="-6.1582770">
    <ele>19.8</ele>
    <time>2025-09-11T12:48:27Z</time>
   </trkpt>
   <trkpt lat="53.4466220" lon="-6.1582440">
    <ele>19.5</ele>
    <time>2025-09-11T12:48:32Z</time>
   </trkpt>
   <trkpt lat="53.4465700" lon="-6.1581950">
    <ele>19.4</ele>
    <time>2025-09-11T12:48:38Z</time>
   </trkpt>
   <trkpt lat="53.4465050" lon="-6.1581710">
    <ele>19.7</ele>
    <time>2025-09-11T12:48:43Z</time>
   </trkpt>
   <trkpt lat="53.4464450" lon="-6.1581540">
    <ele>20.1</ele>
    <time>2025-09-11T12:48:48Z</time>
   </trkpt>
   <trkpt lat="53.4463940" lon="-6.1581130">
    <ele>20.8</ele>
    <time>2025-09-11T12:48:54Z</time>
   </trkpt>
   <trkpt lat="53.4463400" lon="-6.1580950">
    <ele>20.6</ele>
    <time>2025-09-11T12:48:59Z</time>
   </trkpt>
   <trkpt lat="53.4462790" lon="-6.1581280">
    <ele>20.9</ele>
    <time>2025-09-11T12:49:04Z</time>
   </trkpt>
   <trkpt lat="53.4462270" lon="-6.1581330">
    <ele>21.5</ele>
    <time>2025-09-11T12:49:09Z</time>
   </trkpt>
   <trkpt lat="53.4461820" lon="-6.1581050">
    <ele>21.7</ele>
    <time>2025-09-11T12:49:14Z</time>
   </trkpt>
   <trkpt lat="53.4461320" lon="-6.1581120">
    <ele>21.9</ele>
    <time>2025-09-11T12:49:20Z</time>
   </trkpt>
   <trkpt lat="53.4460480" lon="-6.1581010">
    <ele>21.9</ele>
    <time>2025-09-11T12:49:25Z</time>
   </trkpt>
   <trkpt lat="53.4459730" lon="-6.1580700">
    <ele>21.9</ele>
    <time>2025-09-11T12:49:30Z</time>
   </trkpt>
   <trkpt lat="53.4459110" lon="-6.1580500">
    <ele>21.9</ele>
    <time>2025-09-11T12:49:35Z</time>
   </trkpt>
   <trkpt lat="53.4458530" lon="-6.1580490">
    <ele>21.9</ele>
    <time>2025-09-11T12:49:40Z</time>
   </trkpt>
   <trkpt lat="53.4457950" lon="-6.1580310">
    <ele>21.9</ele>
    <time>2025-09-11T12:49:45Z</time>
   </trkpt>
   <trkpt lat="53.4457350" lon="-6.1580130">
    <ele>21.9</ele>
    <time>2025-09-11T12:49:50Z</time>
   </trkpt>
   <trkpt lat="53.4456700" lon="-6.1579920">
    <ele>21.9</ele>
    <time>2025-09-11T12:49:55Z</time>
   </trkpt>
   <trkpt lat="53.4456170" lon="-6.1579770">
    <ele>21.9</ele>
    <time>2025-09-11T12:50:00Z</time>
   </trkpt>
   <trkpt lat="53.4455480" lon="-6.1579790">
    <ele>21.9</ele>
    <time>2025-09-11T12:50:05Z</time>
   </trkpt>
   <trkpt lat="53.4454760" lon="-6.1579710">
    <ele>21.9</ele>
    <time>2025-09-11T12:50:11Z</time>
   </trkpt>
   <trkpt lat="53.4454120" lon="-6.1579570">
    <ele>21.9</ele>
    <time>2025-09-11T12:50:16Z</time>
   </trkpt>
   <trkpt lat="53.4453570" lon="-6.1579510">
    <ele>21.9</ele>
    <time>2025-09-11T12:50:21Z</time>
   </trkpt>
   <trkpt lat="53.4452860" lon="-6.1579430">
    <ele>21.9</ele>
    <time>2025-09-11T12:50:26Z</time>
   </trkpt>
   <trkpt lat="53.4452290" lon="-6.1579370">
    <ele>21.9</ele>
    <time>2025-09-11T12:50:31Z</time>
   </trkpt>
   <trkpt lat="53.4451570" lon="-6.1579080">
    <ele>21.9</ele>
    <time>2025-09-11T12:50:36Z</time>
   </trkpt>
   <trkpt lat="53.4450960" lon="-6.1578930">
    <ele>21.9</ele>
    <time>2025-09-11T12:50:42Z</time>
   </trkpt>
   <trkpt lat="53.4450410" lon="-6.1579170">
    <ele>21.9</ele>
    <time>2025-09-11T12:50:47Z</time>
   </trkpt>
   <trkpt lat="53.4449810" lon="-6.1579150">
    <ele>21.9</ele>
    <time>2025-09-11T12:50:52Z</time>
   </trkpt>
   <trkpt lat="53.4449330" lon="-6.1578790">
    <ele>21.9</ele>
    <time>2025-09-11T12:50:57Z</time>
   </trkpt>
   <trkpt lat="53.4448860" lon="-6.1578390">
    <ele>21.9</ele>
    <time>2025-09-11T12:51:02Z</time>
   </trkpt>
   <trkpt lat="53.4448290" lon="-6.1577980">
    <ele>21.9</ele>
    <time>2025-09-11T12:51:07Z</time>
   </trkpt>
   <trkpt lat="53.4447680" lon="-6.1577910">
    <ele>21.9</ele>
    <time>2025-09-11T12:51:13Z</time>
   </trkpt>
   <trkpt lat="53.4447210" lon="-6.1577860">
    <ele>20.7</ele>
    <time>2025-09-11T12:51:38Z</time>
   </trkpt>
   <trkpt lat="53.4446280" lon="-6.1577000">
    <ele>21.1</ele>
    <time>2025-09-11T12:51:44Z</time>
   </trkpt>
   <trkpt lat="53.4445390" lon="-6.1577250">
    <ele>21.6</ele>
    <time>2025-09-11T12:51:49Z</time>
   </trkpt>
   <trkpt lat="53.4444710" lon="-6.1577380">
    <ele>22.2</ele>
    <time>2025-09-11T12:51:54Z</time>
   </trkpt>
   <trkpt lat="53.4443940" lon="-6.1577390">
    <ele>22.5</ele>
    <time>2025-09-11T12:51:59Z</time>
   </trkpt>
   <trkpt lat="53.4443300" lon="-6.1577650">
    <ele>22.4</ele>
    <time>2025-09-11T12:52:04Z</time>
   </trkpt>
   <trkpt lat="53.4442810" lon="-6.1578250">
    <ele>22.4</ele>
    <time>2025-09-11T12:52:09Z</time>
   </trkpt>
   <trkpt lat="53.4442390" lon="-6.1579060">
    <ele>22.3</ele>
    <time>2025-09-11T12:52:14Z</time>
   </trkpt>
   <trkpt lat="53.4441890" lon="-6.1579860">
    <ele>22.2</ele>
    <time>2025-09-11T12:52:19Z</time>
   </trkpt>
   <trkpt lat="53.4441210" lon="-6.1580230">
    <ele>21.9</ele>
    <time>2025-09-11T12:52:24Z</time>
   </trkpt>
   <trkpt lat="53.4440610" lon="-6.1580370">
    <ele>22.0</ele>
    <time>2025-09-11T12:52:30Z</time>
   </trkpt>
   <trkpt lat="53.4440120" lon="-6.1580260">
    <ele>22.0</ele>
    <time>2025-09-11T12:52:35Z</time>
   </trkpt>
   <trkpt lat="53.4439640" lon="-6.1579970">
    <ele>21.9</ele>
    <time>2025-09-11T12:52:40Z</time>
   </trkpt>
   <trkpt lat="53.4439130" lon="-6.1579770">
    <ele>21.8</ele>
    <time>2025-09-11T12:52:45Z</time>
   </trkpt>
   <trkpt lat="53.4438580" lon="-6.1579430">
    <ele>21.7</ele>
    <time>2025-09-11T12:52:50Z</time>
   </trkpt>
   <trkpt lat="53.4437830" lon="-6.1578930">
    <ele>21.4</ele>
    <time>2025-09-11T12:52:55Z</time>
   </trkpt>
   <trkpt lat="53.4437280" lon="-6.1578580">
    <ele>21.5</ele>
    <time>2025-09-11T12:53:01Z</time>
   </trkpt>
   <trkpt lat="53.4436760" lon="-6.1578130">
    <ele>21.7</ele>
    <time>2025-09-11T12:53:06Z</time>
   </trkpt>
   <trkpt lat="53.4436110" lon="-6.1577810">
    <ele>22.0</ele>
    <time>2025-09-11T12:53:11Z</time>
   </trkpt>
   <trkpt lat="53.4435450" lon="-6.1577840">
    <ele>22.3</ele>
    <time>2025-09-11T12:53:16Z</time>
   </trkpt>
   <trkpt lat="53.4434630" lon="-6.1577730">
    <ele>22.4</ele>
    <time>2025-09-11T12:53:21Z</time>
   </trkpt>
   <trkpt lat="53.4433880" lon="-6.1577590">
    <ele>22.3</ele>
    <time>2025-09-11T12:53:26Z</time>
   </trkpt>
   <trkpt lat="53.4433180" lon="-6.1577340">
    <ele>22.2</ele>
    <time>2025-09-11T12:53:31Z</time>
   </trkpt>
   <trkpt lat="53.4432460" lon="-6.1577390">
    <ele>22.0</ele>
    <time>2025-09-11T12:53:36Z</time>
   </trkpt>
   <trkpt lat="53.4431930" lon="-6.1576880">
    <ele>21.8</ele>
    <time>2025-09-11T12:53:41Z</time>
   </trkpt>
   <trkpt lat="53.4431450" lon="-6.1576340">
    <ele>21.9</ele>
    <time>2025-09-11T12:53:46Z</time>
   </trkpt>
   <trkpt lat="53.4430970" lon="-6.1576120">
    <ele>21.9</ele>
    <time>2025-09-11T12:53:51Z</time>
   </trkpt>
   <trkpt lat="53.4430510" lon="-6.1575970">
    <ele>21.8</ele>
    <time>2025-09-11T12:53:56Z</time>
   </trkpt>
   <trkpt lat="53.4429990" lon="-6.1576160">
    <ele>21.0</ele>
    <time>2025-09-11T12:54:01Z</time>
   </trkpt>
   <trkpt lat="53.4429380" lon="-6.1576010">
    <ele>20.4</ele>
    <time>2025-09-11T12:54:07Z</time>
   </trkpt>
   <trkpt lat="53.4429200" lon="-6.1574920">
    <ele>20.1</ele>
    <time>2025-09-11T12:54:12Z</time>
   </trkpt>
   <trkpt lat="53.4429110" lon="-6.1573810">
    <ele>20.6</ele>
    <time>2025-09-11T12:54:17Z</time>
   </trkpt>
   <trkpt lat="53.4428740" lon="-6.1572800">
    <ele>21.7</ele>
    <time>2025-09-11T12:54:22Z</time>
   </trkpt>
   <trkpt lat="53.4428020" lon="-6.1572500">
    <ele>22.3</ele>
    <time>2025-09-11T12:54:27Z</time>
   </trkpt>
   <trkpt lat="53.4427500" lon="-6.1572090">
    <ele>21.9</ele>
    <time>2025-09-11T12:54:32Z</time>
   </trkpt>
   <trkpt lat="53.4427450" lon="-6.1571040">
    <ele>21.0</ele>
    <time>2025-09-11T12:54:38Z</time>
   </trkpt>
   <trkpt lat="53.4427550" lon="-6.1570090">
    <ele>20.8</ele>
    <time>2025-09-11T12:54:43Z</time>
   </trkpt>
   <trkpt lat="53.4427840" lon="-6.1569410">
    <ele>21.4</ele>
    <time>2025-09-11T12:54:48Z</time>
   </trkpt>
   <trkpt lat="53.4428160" lon="-6.1568510">
    <ele>21.5</ele>
    <time>2025-09-11T12:54:53Z</time>
   </trkpt>
   <trkpt lat="53.4428580" lon="-6.1567740">
    <ele>21.9</ele>
    <time>2025-09-11T12:54:58Z</time>
   </trkpt>
   <trkpt lat="53.4428990" lon="-6.1567040">
    <ele>22.5</ele>
    <time>2025-09-11T12:55:03Z</time>
   </trkpt>
   <trkpt lat="53.4429470" lon="-6.1566090">
    <ele>22.9</ele>
    <time>2025-09-11T12:55:08Z</time>
   </trkpt>
   <trkpt lat="53.4429780" lon="-6.1565340">
    <ele>23.5</ele>
    <time>2025-09-11T12:55:13Z</time>
   </trkpt>
   <trkpt lat="53.4430230" lon="-6.1564520">
    <ele>24.4</ele>
    <time>2025-09-11T12:55:19Z</time>
   </trkpt>
   <trkpt lat="53.4430300" lon="-6.1563650">
    <ele>24.7</ele>
    <time>2025-09-11T12:55:24Z</time>
   </trkpt>
   <trkpt lat="53.4429700" lon="-6.1562880">
    <ele>24.7</ele>
    <time>2025-09-11T12:55:29Z</time>
   </trkpt>
   <trkpt lat="53.4429390" lon="-6.1561990">
    <ele>24.0</ele>
    <time>2025-09-11T12:55:34Z</time>
   </trkpt>
   <trkpt lat="53.4428890" lon="-6.1561000">
    <ele>23.4</ele>
    <time>2025-09-11T12:55:40Z</time>
   </trkpt>
   <trkpt lat="53.4428490" lon="-6.1560030">
    <ele>23.3</ele>
    <time>2025-09-11T12:55:45Z</time>
   </trkpt>
   <trkpt lat="53.4427900" lon="-6.1559500">
    <ele>23.3</ele>
    <time>2025-09-11T12:55:50Z</time>
   </trkpt>
   <trkpt lat="53.4427230" lon="-6.1559320">
    <ele>23.0</ele>
    <time>2025-09-11T12:55:55Z</time>
   </trkpt>
   <trkpt lat="53.4426640" lon="-6.1558740">
    <ele>22.8</ele>
    <time>2025-09-11T12:56:00Z</time>
   </trkpt>
   <trkpt lat="53.4426030" lon="-6.1558290">
    <ele>22.9</ele>
    <time>2025-09-11T12:56:06Z</time>
   </trkpt>
   <trkpt lat="53.4425520" lon="-6.1557850">
    <ele>23.0</ele>
    <time>2025-09-11T12:56:11Z</time>
   </trkpt>
   <trkpt lat="53.4425110" lon="-6.1557150">
    <ele>23.1</ele>
    <time>2025-09-11T12:56:17Z</time>
   </trkpt>
   <trkpt lat="53.4424740" lon="-6.1556080">
    <ele>22.5</ele>
    <time>2025-09-11T12:56:22Z</time>
   </trkpt>
   <trkpt lat="53.4424500" lon="-6.1554980">
    <ele>22.8</ele>
    <time>2025-09-11T12:56:27Z</time>
   </trkpt>
   <trkpt lat="53.4424120" lon="-6.1554040">
    <ele>24.6</ele>
    <time>2025-09-11T12:56:32Z</time>
   </trkpt>
   <trkpt lat="53.4423750" lon="-6.1553070">
    <ele>25.1</ele>
    <time>2025-09-11T12:56:37Z</time>
   </trkpt>
   <trkpt lat="53.4423340" lon="-6.1552160">
    <ele>25.4</ele>
    <time>2025-09-11T12:56:42Z</time>
   </trkpt>
   <trkpt lat="53.4423010" lon="-6.1551240">
    <ele>25.5</ele>
    <time>2025-09-11T12:56:47Z</time>
   </trkpt>
   <trkpt lat="53.4422740" lon="-6.1550180">
    <ele>25.4</ele>
    <time>2025-09-11T12:56:53Z</time>
   </trkpt>
   <trkpt lat="53.4422330" lon="-6.1549120">
    <ele>25.5</ele>
    <time>2025-09-11T12:56:58Z</time>
   </trkpt>
   <trkpt lat="53.4421930" lon="-6.1548240">
    <ele>25.5</ele>
    <time>2025-09-11T12:57:03Z</time>
   </trkpt>
   <trkpt lat="53.4421680" lon="-6.1547340">
    <ele>25.4</ele>
    <time>2025-09-11T12:57:08Z</time>
   </trkpt>
   <trkpt lat="53.4421580" lon="-6.1546260">
    <ele>25.6</ele>
    <time>2025-09-11T12:57:14Z</time>
   </trkpt>
   <trkpt lat="53.4421620" lon="-6.1545350">
    <ele>25.6</ele>
    <time>2025-09-11T12:57:19Z</time>
   </trkpt>
   <trkpt lat="53.4421740" lon="-6.1544390">
    <ele>25.5</ele>
    <time>2025-09-11T12:57:24Z</time>
   </trkpt>
   <trkpt lat="53.4421700" lon="-6.1543450">
    <ele>25.6</ele>
    <time>2025-09-11T12:57:29Z</time>
   </trkpt>
   <trkpt lat="53.4421770" lon="-6.1542480">
    <ele>25.7</ele>
    <time>2025-09-11T12:57:34Z</time>
   </trkpt>
   <trkpt lat="53.4421640" lon="-6.1541250">
    <ele>25.6</ele>
    <time>2025-09-11T12:57:40Z</time>
   </trkpt>
   <trkpt lat="53.4421590" lon="-6.1540250">
    <ele>25.5</ele>
    <time>2025-09-11T12:57:45Z</time>
   </trkpt>
   <trkpt lat="53.4421510" lon="-6.1539120">
    <ele>25.4</ele>
    <time>2025-09-11T12:57:50Z</time>
   </trkpt>
   <trkpt lat="53.4421340" lon="-6.1538020">
    <ele>25.4</ele>
    <time>2025-09-11T12:57:55Z</time>
   </trkpt>
   <trkpt lat="53.4421290" lon="-6.1536890">
    <ele>25.4</ele>
    <time>2025-09-11T12:58:00Z</time>
   </trkpt>
   <trkpt lat="53.4421300" lon="-6.1535780">
    <ele>25.5</ele>
    <time>2025-09-11T12:58:06Z</time>
   </trkpt>
   <trkpt lat="53.4421210" lon="-6.1534650">
    <ele>25.5</ele>
    <time>2025-09-11T12:58:11Z</time>
   </trkpt>
   <trkpt lat="53.4421080" lon="-6.1533570">
    <ele>25.4</ele>
    <time>2025-09-11T12:58:16Z</time>
   </trkpt>
   <trkpt lat="53.4420730" lon="-6.1532910">
    <ele>25.3</ele>
    <time>2025-09-11T12:58:22Z</time>
   </trkpt>
   <trkpt lat="53.4420560" lon="-6.1531920">
    <ele>26.0</ele>
    <time>2025-09-11T12:58:45Z</time>
   </trkpt>
   <trkpt lat="53.4420520" lon="-6.1530030">
    <ele>26.5</ele>
    <time>2025-09-11T12:58:50Z</time>
   </trkpt>
   <trkpt lat="53.4420670" lon="-6.1528950">
    <ele>26.7</ele>
    <time>2025-09-11T12:58:55Z</time>
   </trkpt>
   <trkpt lat="53.4420620" lon="-6.1527690">
    <ele>26.9</ele>
    <time>2025-09-11T12:59:00Z</time>
   </trkpt>
   <trkpt lat="53.4420480" lon="-6.1526560">
    <ele>27.1</ele>
    <time>2025-09-11T12:59:06Z</time>
   </trkpt>
   <trkpt lat="53.4420380" lon="-6.1525660">
    <ele>27.2</ele>
    <time>2025-09-11T12:59:11Z</time>
   </trkpt>
   <trkpt lat="53.4419890" lon="-6.1524690">
    <ele>27.2</ele>
    <time>2025-09-11T12:59:16Z</time>
   </trkpt>
   <trkpt lat="53.4419590" lon="-6.1523560">
    <ele>27.2</ele>
    <time>2025-09-11T12:59:21Z</time>
   </trkpt>
   <trkpt lat="53.4419420" lon="-6.1522660">
    <ele>27.2</ele>
    <time>2025-09-11T12:59:26Z</time>
   </trkpt>
   <trkpt lat="53.4419390" lon="-6.1521450">
    <ele>27.1</ele>
    <time>2025-09-11T12:59:31Z</time>
   </trkpt>
   <trkpt lat="53.4419300" lon="-6.1520410">
    <ele>27.1</ele>
    <time>2025-09-11T12:59:37Z</time>
   </trkpt>
   <trkpt lat="53.4419300" lon="-6.1519280">
    <ele>27.1</ele>
    <time>2025-09-11T12:59:42Z</time>
   </trkpt>
   <trkpt lat="53.4419270" lon="-6.1518210">
    <ele>27.1</ele>
    <time>2025-09-11T12:59:47Z</time>
   </trkpt>
   <trkpt lat="53.4419190" lon="-6.1517080">
    <ele>27.1</ele>
    <time>2025-09-11T12:59:52Z</time>
   </trkpt>
   <trkpt lat="53.4419290" lon="-6.1515910">
    <ele>27.2</ele>
    <time>2025-09-11T12:59:57Z</time>
   </trkpt>
   <trkpt lat="53.4419490" lon="-6.1514770">
    <ele>27.3</ele>
    <time>2025-09-11T13:00:02Z</time>
   </trkpt>
   <trkpt lat="53.4419960" lon="-6.1514150">
    <ele>27.4</ele>
    <time>2025-09-11T13:00:07Z</time>
   </trkpt>
   <trkpt lat="53.4420460" lon="-6.1514030">
    <ele>27.4</ele>
    <time>2025-09-11T13:00:13Z</time>
   </trkpt>
   <trkpt lat="53.4421050" lon="-6.1513940">
    <ele>27.4</ele>
    <time>2025-09-11T13:00:18Z</time>
   </trkpt>
   <trkpt lat="53.4421520" lon="-6.1513050">
    <ele>27.5</ele>
    <time>2025-09-11T13:00:23Z</time>
   </trkpt>
   <trkpt lat="53.4421970" lon="-6.1512630">
    <ele>27.7</ele>
    <time>2025-09-11T13:00:28Z</time>
   </trkpt>
   <trkpt lat="53.4422170" lon="-6.1511820">
    <ele>28.1</ele>
    <time>2025-09-11T13:01:15Z</time>
   </trkpt>
   <trkpt lat="53.4422030" lon="-6.1510170">
    <ele>28.5</ele>
    <time>2025-09-11T13:01:20Z</time>
   </trkpt>
   <trkpt lat="53.4422070" lon="-6.1508590">
    <ele>28.7</ele>
    <time>2025-09-11T13:01:26Z</time>
   </trkpt>
   <trkpt lat="53.4422090" lon="-6.1507200">
    <ele>28.4</ele>
    <time>2025-09-11T13:01:31Z</time>
   </trkpt>
   <trkpt lat="53.4422120" lon="-6.1505800">
    <ele>28.4</ele>
    <time>2025-09-11T13:01:37Z</time>
   </trkpt>
   <trkpt lat="53.4421900" lon="-6.1504760">
    <ele>28.6</ele>
    <time>2025-09-11T13:01:42Z</time>
   </trkpt>
   <trkpt lat="53.4421760" lon="-6.1503700">
    <ele>28.7</ele>
    <time>2025-09-11T13:01:47Z</time>
   </trkpt>
   <trkpt lat="53.4421630" lon="-6.1502620">
    <ele>28.8</ele>
    <time>2025-09-11T13:01:52Z</time>
   </trkpt>
   <trkpt lat="53.4421650" lon="-6.1501580">
    <ele>28.9</ele>
    <time>2025-09-11T13:01:57Z</time>
   </trkpt>
   <trkpt lat="53.4421690" lon="-6.1500510">
    <ele>29.0</ele>
    <time>2025-09-11T13:02:02Z</time>
   </trkpt>
   <trkpt lat="53.4421700" lon="-6.1499420">
    <ele>29.0</ele>
    <time>2025-09-11T13:02:07Z</time>
   </trkpt>
   <trkpt lat="53.4421560" lon="-6.1498370">
    <ele>29.7</ele>
    <time>2025-09-11T13:02:12Z</time>
   </trkpt>
   <trkpt lat="53.4421550" lon="-6.1497330">
    <ele>29.7</ele>
    <time>2025-09-11T13:02:18Z</time>
   </trkpt>
   <trkpt lat="53.4421420" lon="-6.1496150">
    <ele>29.8</ele>
    <time>2025-09-11T13:02:23Z</time>
   </trkpt>
   <trkpt lat="53.4421210" lon="-6.1495140">
    <ele>30.1</ele>
    <time>2025-09-11T13:02:28Z</time>
   </trkpt>
   <trkpt lat="53.4421140" lon="-6.1494060">
    <ele>30.3</ele>
    <time>2025-09-11T13:02:33Z</time>
   </trkpt>
   <trkpt lat="53.4421160" lon="-6.1493010">
    <ele>30.4</ele>
    <time>2025-09-11T13:02:38Z</time>
   </trkpt>
   <trkpt lat="53.4421130" lon="-6.1492030">
    <ele>30.5</ele>
    <time>2025-09-11T13:02:44Z</time>
   </trkpt>
   <trkpt lat="53.4421080" lon="-6.1490980">
    <ele>30.8</ele>
    <time>2025-09-11T13:02:49Z</time>
   </trkpt>
   <trkpt lat="53.4421080" lon="-6.1490030">
    <ele>30.8</ele>
    <time>2025-09-11T13:02:54Z</time>
   </trkpt>
   <trkpt lat="53.4420960" lon="-6.1488990">
    <ele>30.9</ele>
    <time>2025-09-11T13:02:59Z</time>
   </trkpt>
   <trkpt lat="53.4420860" lon="-6.1487940">
    <ele>31.4</ele>
    <time>2025-09-11T13:03:05Z</time>
   </trkpt>
   <trkpt lat="53.4420690" lon="-6.1486860">
    <ele>31.8</ele>
    <time>2025-09-11T13:03:10Z</time>
   </trkpt>
   <trkpt lat="53.4420930" lon="-6.1486100">
    <ele>32.1</ele>
    <time>2025-09-11T13:03:26Z</time>
   </trkpt>
   <trkpt lat="53.4420860" lon="-6.1484360">
    <ele>32.1</ele>
    <time>2025-09-11T13:03:32Z</time>
   </trkpt>
   <trkpt lat="53.4420730" lon="-6.1483380">
    <ele>32.1</ele>
    <time>2025-09-11T13:03:37Z</time>
   </trkpt>
   <trkpt lat="53.4420470" lon="-6.1482440">
    <ele>32.1</ele>
    <time>2025-09-11T13:03:42Z</time>
   </trkpt>
   <trkpt lat="53.4420400" lon="-6.1481200">
    <ele>32.3</ele>
    <time>2025-09-11T13:03:48Z</time>
   </trkpt>
   <trkpt lat="53.4420460" lon="-6.1479940">
    <ele>32.8</ele>
    <time>2025-09-11T13:03:53Z</time>
   </trkpt>
   <trkpt lat="53.4420460" lon="-6.1478800">
    <ele>32.9</ele>
    <time>2025-09-11T13:03:58Z</time>
   </trkpt>
   <trkpt lat="53.4420590" lon="-6.1477680">
    <ele>33.1</ele>
    <time>2025-09-11T13:04:03Z</time>
   </trkpt>
   <trkpt lat="53.4420390" lon="-6.1476510">
    <ele>33.3</ele>
    <time>2025-09-11T13:04:08Z</time>
   </trkpt>
   <trkpt lat="53.4420120" lon="-6.1475810">
    <ele>33.4</ele>
    <time>2025-09-11T13:04:21Z</time>
   </trkpt>
   <trkpt lat="53.4420200" lon="-6.1473980">
    <ele>33.4</ele>
    <time>2025-09-11T13:04:26Z</time>
   </trkpt>
   <trkpt lat="53.4420260" lon="-6.1472870">
    <ele>33.4</ele>
    <time>2025-09-11T13:04:31Z</time>
   </trkpt>
   <trkpt lat="53.4420290" lon="-6.1471800">
    <ele>33.9</ele>
    <time>2025-09-11T13:04:36Z</time>
   </trkpt>
   <trkpt lat="53.4420290" lon="-6.1470570">
    <ele>34.5</ele>
    <time>2025-09-11T13:04:41Z</time>
   </trkpt>
   <trkpt lat="53.4419900" lon="-6.1469540">
    <ele>34.1</ele>
    <time>2025-09-11T13:04:47Z</time>
   </trkpt>
   <trkpt lat="53.4419730" lon="-6.1468570">
    <ele>34.6</ele>
    <time>2025-09-11T13:04:52Z</time>
   </trkpt>
   <trkpt lat="53.4419730" lon="-6.1467470">
    <ele>34.8</ele>
    <time>2025-09-11T13:04:57Z</time>
   </trkpt>
   <trkpt lat="53.4419680" lon="-6.1466320">
    <ele>34.0</ele>
    <time>2025-09-11T13:05:02Z</time>
   </trkpt>
   <trkpt lat="53.4419780" lon="-6.1465410">
    <ele>34.5</ele>
    <time>2025-09-11T13:05:08Z</time>
   </trkpt>
   <trkpt lat="53.4419660" lon="-6.1464410">
    <ele>34.8</ele>
    <time>2025-09-11T13:05:13Z</time>
   </trkpt>
   <trkpt lat="53.4419600" lon="-6.1463260">
    <ele>35.2</ele>
    <time>2025-09-11T13:05:18Z</time>
   </trkpt>
   <trkpt lat="53.4419650" lon="-6.1462230">
    <ele>35.8</ele>
    <time>2025-09-11T13:05:23Z</time>
   </trkpt>
   <trkpt lat="53.4419430" lon="-6.1461250">
    <ele>36.0</ele>
    <time>2025-09-11T13:05:28Z</time>
   </trkpt>
   <trkpt lat="53.4419390" lon="-6.1460150">
    <ele>36.3</ele>
    <time>2025-09-11T13:05:33Z</time>
   </trkpt>
   <trkpt lat="53.4419330" lon="-6.1459040">
    <ele>37.0</ele>
    <time>2025-09-11T13:05:39Z</time>
   </trkpt>
   <trkpt lat="53.4419380" lon="-6.1457910">
    <ele>37.3</ele>
    <time>2025-09-11T13:05:44Z</time>
   </trkpt>
   <trkpt lat="53.4419560" lon="-6.1456790">
    <ele>37.5</ele>
    <time>2025-09-11T13:05:50Z</time>
   </trkpt>
   <trkpt lat="53.4419300" lon="-6.1455810">
    <ele>37.5</ele>
    <time>2025-09-11T13:05:55Z</time>
   </trkpt>
   <trkpt lat="53.4419160" lon="-6.1455050">
    <ele>36.9</ele>
    <time>2025-09-11T13:06:00Z</time>
   </trkpt>
   <trkpt lat="53.4418960" lon="-6.1454170">
    <ele>37.2</ele>
    <time>2025-09-11T13:06:06Z</time>
   </trkpt>
   <trkpt lat="53.4418890" lon="-6.1453040">
    <ele>37.3</ele>
    <time>2025-09-11T13:06:12Z</time>
   </trkpt>
   <trkpt lat="53.4418810" lon="-6.1452250">
    <ele>39.2</ele>
    <time>2025-09-11T13:06:18Z</time>
   </trkpt>
   <trkpt lat="53.4418820" lon="-6.1451320">
    <ele>40.0</ele>
    <time>2025-09-11T13:06:23Z</time>
   </trkpt>
   <trkpt lat="53.4418720" lon="-6.1450030">
    <ele>40.4</ele>
    <time>2025-09-11T13:06:28Z</time>
   </trkpt>
   <trkpt lat="53.4418730" lon="-6.1449000">
    <ele>40.5</ele>
    <time>2025-09-11T13:06:34Z</time>
   </trkpt>
   <trkpt lat="53.4418690" lon="-6.1447940">
    <ele>40.6</ele>
    <time>2025-09-11T13:06:39Z</time>
   </trkpt>
   <trkpt lat="53.4418720" lon="-6.1446810">
    <ele>40.6</ele>
    <time>2025-09-11T13:06:44Z</time>
   </trkpt>
   <trkpt lat="53.4418700" lon="-6.1445750">
    <ele>40.6</ele>
    <time>2025-09-11T13:06:49Z</time>
   </trkpt>
   <trkpt lat="53.4418700" lon="-6.1444750">
    <ele>40.7</ele>
    <time>2025-09-11T13:06:55Z</time>
   </trkpt>
   <trkpt lat="53.4418750" lon="-6.1443700">
    <ele>40.7</ele>
    <time>2025-09-11T13:07:00Z</time>
   </trkpt>
   <trkpt lat="53.4418700" lon="-6.1442730">
    <ele>40.6</ele>
    <time>2025-09-11T13:07:05Z</time>
   </trkpt>
   <trkpt lat="53.4418510" lon="-6.1441710">
    <ele>40.8</ele>
    <time>2025-09-11T13:07:10Z</time>
   </trkpt>
   <trkpt lat="53.4418530" lon="-6.1440580">
    <ele>41.1</ele>
    <time>2025-09-11T13:07:15Z</time>
   </trkpt>
   <trkpt lat="53.4418480" lon="-6.1439400">
    <ele>41.4</ele>
    <time>2025-09-11T13:07:21Z</time>
   </trkpt>
   <trkpt lat="53.4418540" lon="-6.1438270">
    <ele>41.9</ele>
    <time>2025-09-11T13:07:26Z</time>
   </trkpt>
   <trkpt lat="53.4418430" lon="-6.1437280">
    <ele>42.2</ele>
    <time>2025-09-11T13:07:31Z</time>
   </trkpt>
   <trkpt lat="53.4418160" lon="-6.1436420">
    <ele>42.3</ele>
    <time>2025-09-11T13:07:36Z</time>
   </trkpt>
   <trkpt lat="53.4418210" lon="-6.1435640">
    <ele>42.1</ele>
    <time>2025-09-11T13:08:19Z</time>
   </trkpt>
   <trkpt lat="53.4418220" lon="-6.1434170">
    <ele>42.0</ele>
    <time>2025-09-11T13:08:24Z</time>
   </trkpt>
   <trkpt lat="53.4418280" lon="-6.1432900">
    <ele>42.1</ele>
    <time>2025-09-11T13:08:29Z</time>
   </trkpt>
   <trkpt lat="53.4418230" lon="-6.1431670">
    <ele>42.2</ele>
    <time>2025-09-11T13:08:35Z</time>
   </trkpt>
   <trkpt lat="53.4418170" lon="-6.1430560">
    <ele>42.1</ele>
    <time>2025-09-11T13:08:40Z</time>
   </trkpt>
   <trkpt lat="53.4418030" lon="-6.1429640">
    <ele>42.1</ele>
    <time>2025-09-11T13:08:45Z</time>
   </trkpt>
   <trkpt lat="53.4417970" lon="-6.1428570">
    <ele>42.0</ele>
    <time>2025-09-11T13:08:50Z</time>
   </trkpt>
   <trkpt lat="53.4417810" lon="-6.1427680">
    <ele>42.0</ele>
    <time>2025-09-11T13:08:55Z</time>
   </trkpt>
   <trkpt lat="53.4417830" lon="-6.1426720">
    <ele>42.5</ele>
    <time>2025-09-11T13:09:01Z</time>
   </trkpt>
   <trkpt lat="53.4417670" lon="-6.1425540">
    <ele>43.0</ele>
    <time>2025-09-11T13:09:06Z</time>
   </trkpt>
   <trkpt lat="53.4417610" lon="-6.1424340">
    <ele>43.2</ele>
    <time>2025-09-11T13:09:11Z</time>
   </trkpt>
   <trkpt lat="53.4417620" lon="-6.1423150">
    <ele>42.8</ele>
    <time>2025-09-11T13:09:16Z</time>
   </trkpt>
   <trkpt lat="53.4417630" lon="-6.1422060">
    <ele>42.8</ele>
    <time>2025-09-11T13:09:21Z</time>
   </trkpt>
   <trkpt lat="53.4417720" lon="-6.1421080">
    <ele>42.7</ele>
    <time>2025-09-11T13:09:26Z</time>
   </trkpt>
   <trkpt lat="53.4417760" lon="-6.1420110">
    <ele>42.9</ele>
    <time>2025-09-11T13:09:31Z</time>
   </trkpt>
   <trkpt lat="53.4417810" lon="-6.1419060">
    <ele>43.2</ele>
    <time>2025-09-11T13:09:36Z</time>
   </trkpt>
   <trkpt lat="53.4417820" lon="-6.1417880">
    <ele>43.3</ele>
    <time>2025-09-11T13:09:42Z</time>
   </trkpt>
   <trkpt lat="53.4417710" lon="-6.1416750">
    <ele>43.6</ele>
    <time>2025-09-11T13:09:47Z</time>
   </trkpt>
   <trkpt lat="53.4417580" lon="-6.1415770">
    <ele>43.5</ele>
    <time>2025-09-11T13:09:53Z</time>
   </trkpt>
   <trkpt lat="53.4417380" lon="-6.1414600">
    <ele>43.8</ele>
    <time>2025-09-11T13:09:59Z</time>
   </trkpt>
   <trkpt lat="53.4417580" lon="-6.1413460">
    <ele>43.5</ele>
    <time>2025-09-11T13:10:04Z</time>
   </trkpt>
   <trkpt lat="53.4417780" lon="-6.1412280">
    <ele>43.4</ele>
    <time>2025-09-11T13:10:09Z</time>
   </trkpt>
   <trkpt lat="53.4417980" lon="-6.1411260">
    <ele>43.3</ele>
    <time>2025-09-11T13:10:14Z</time>
   </trkpt>
   <trkpt lat="53.4418270" lon="-6.1410310">
    <ele>43.3</ele>
    <time>2025-09-11T13:10:20Z</time>
   </trkpt>
   <trkpt lat="53.4418720" lon="-6.1409430">
    <ele>43.5</ele>
    <time>2025-09-11T13:10:25Z</time>
   </trkpt>
   <trkpt lat="53.4419040" lon="-6.1408410">
    <ele>44.0</ele>
    <time>2025-09-11T13:10:30Z</time>
   </trkpt>
   <trkpt lat="53.4419310" lon="-6.1407480">
    <ele>44.5</ele>
    <time>2025-09-11T13:10:35Z</time>
   </trkpt>
   <trkpt lat="53.4419330" lon="-6.1406330">
    <ele>45.1</ele>
    <time>2025-09-11T13:10:40Z</time>
   </trkpt>
   <trkpt lat="53.4419050" lon="-6.1405060">
    <ele>45.4</ele>
    <time>2025-09-11T13:10:46Z</time>
   </trkpt>
   <trkpt lat="53.4418840" lon="-6.1403990">
    <ele>45.6</ele>
    <time>2025-09-11T13:10:51Z</time>
   </trkpt>
   <trkpt lat="53.4418800" lon="-6.1402990">
    <ele>45.8</ele>
    <time>2025-09-11T13:10:56Z</time>
   </trkpt>
   <trkpt lat="53.4418740" lon="-6.1402000">
    <ele>46.1</ele>
    <time>2025-09-11T13:11:01Z</time>
   </trkpt>
   <trkpt lat="53.4418740" lon="-6.1401010">
    <ele>46.3</ele>
    <time>2025-09-11T13:11:06Z</time>
   </trkpt>
   <trkpt lat="53.4418780" lon="-6.1399890">
    <ele>46.5</ele>
    <time>2025-09-11T13:11:11Z</time>
   </trkpt>
   <trkpt lat="53.4418880" lon="-6.1398780">
    <ele>46.6</ele>
    <time>2025-09-11T13:11:16Z</time>
   </trkpt>
   <trkpt lat="53.4419240" lon="-6.1397650">
    <ele>46.9</ele>
    <time>2025-09-11T13:11:21Z</time>
   </trkpt>
   <trkpt lat="53.4419320" lon="-6.1396600">
    <ele>47.8</ele>
    <time>2025-09-11T13:11:27Z</time>
   </trkpt>
   <trkpt lat="53.4419410" lon="-6.1395640">
    <ele>48.1</ele>
    <time>2025-09-11T13:11:32Z</time>
   </trkpt>
   <trkpt lat="53.4419340" lon="-6.1394460">
    <ele>48.7</ele>
    <time>2025-09-11T13:11:37Z</time>
   </trkpt>
   <trkpt lat="53.4419470" lon="-6.1393480">
    <ele>48.8</ele>
    <time>2025-09-11T13:11:42Z</time>
   </trkpt>
   <trkpt lat="53.4419610" lon="-6.1392410">
    <ele>49.2</ele>
    <time>2025-09-11T13:11:48Z</time>
   </trkpt>
   <trkpt lat="53.4419560" lon="-6.1391320">
    <ele>49.4</ele>
    <time>2025-09-11T13:11:53Z</time>
   </trkpt>
   <trkpt lat="53.4419460" lon="-6.1390220">
    <ele>49.2</ele>
    <time>2025-09-11T13:11:58Z</time>
   </trkpt>
   <trkpt lat="53.4419290" lon="-6.1389130">
    <ele>48.1</ele>
    <time>2025-09-11T13:12:03Z</time>
   </trkpt>
   <trkpt lat="53.4419390" lon="-6.1388050">
    <ele>47.3</ele>
    <time>2025-09-11T13:12:08Z</time>
   </trkpt>
   <trkpt lat="53.4419290" lon="-6.1387270">
    <ele>47.0</ele>
    <time>2025-09-11T13:12:14Z</time>
   </trkpt>
   <trkpt lat="53.4419700" lon="-6.1386870">
    <ele>46.6</ele>
    <time>2025-09-11T13:12:29Z</time>
   </trkpt>
   <trkpt lat="53.4419960" lon="-6.1386010">
    <ele>46.5</ele>
    <time>2025-09-11T13:12:54Z</time>
   </trkpt>
   <trkpt lat="53.4420590" lon="-6.1384670">
    <ele>46.6</ele>
    <time>2025-09-11T13:12:59Z</time>
   </trkpt>
   <trkpt lat="53.4420940" lon="-6.1383710">
    <ele>46.7</ele>
    <time>2025-09-11T13:13:04Z</time>
   </trkpt>
   <trkpt lat="53.4421230" lon="-6.1382690">
    <ele>46.3</ele>
    <time>2025-09-11T13:13:09Z</time>
   </trkpt>
   <trkpt lat="53.4421490" lon="-6.1381590">
    <ele>46.1</ele>
    <time>2025-09-11T13:13:14Z</time>
   </trkpt>
   <trkpt lat="53.4421980" lon="-6.1381520">
    <ele>46.0</ele>
    <time>2025-09-11T13:13:20Z</time>
   </trkpt>
   <trkpt lat="53.4421650" lon="-6.1381000">
    <ele>46.0</ele>
    <time>2025-09-11T13:13:48Z</time>
   </trkpt>
   <trkpt lat="53.4422040" lon="-6.1380330">
    <ele>45.8</ele>
    <time>2025-09-11T13:13:58Z</time>
   </trkpt>
   <trkpt lat="53.4422410" lon="-6.1379030">
    <ele>45.4</ele>
    <time>2025-09-11T13:14:04Z</time>
   </trkpt>
   <trkpt lat="53.4422920" lon="-6.1378310">
    <ele>44.0</ele>
    <time>2025-09-11T13:14:09Z</time>
   </trkpt>
   <trkpt lat="53.4423330" lon="-6.1377570">
    <ele>45.1</ele>
    <time>2025-09-11T13:14:14Z</time>
   </trkpt>
   <trkpt lat="53.4423640" lon="-6.1376500">
    <ele>45.7</ele>
    <time>2025-09-11T13:14:20Z</time>
   </trkpt>
   <trkpt lat="53.4424020" lon="-6.1375540">
    <ele>45.9</ele>
    <time>2025-09-11T13:14:25Z</time>
   </trkpt>
   <trkpt lat="53.4424360" lon="-6.1374610">
    <ele>45.7</ele>
    <time>2025-09-11T13:14:30Z</time>
   </trkpt>
   <trkpt lat="53.4424650" lon="-6.1373860">
    <ele>45.6</ele>
    <time>2025-09-11T13:14:44Z</time>
   </trkpt>
   <trkpt lat="53.4424900" lon="-6.1372920">
    <ele>45.7</ele>
    <time>2025-09-11T13:14:49Z</time>
   </trkpt>
   <trkpt lat="53.4425260" lon="-6.1372020">
    <ele>46.1</ele>
    <time>2025-09-11T13:14:54Z</time>
   </trkpt>
   <trkpt lat="53.4425540" lon="-6.1371080">
    <ele>45.8</ele>
    <time>2025-09-11T13:15:00Z</time>
   </trkpt>
   <trkpt lat="53.4425590" lon="-6.1369970">
    <ele>45.5</ele>
    <time>2025-09-11T13:15:05Z</time>
   </trkpt>
   <trkpt lat="53.4425200" lon="-6.1369160">
    <ele>45.1</ele>
    <time>2025-09-11T13:15:10Z</time>
   </trkpt>
   <trkpt lat="53.4424980" lon="-6.1368230">
    <ele>45.3</ele>
    <time>2025-09-11T13:15:16Z</time>
   </trkpt>
   <trkpt lat="53.4425030" lon="-6.1367140">
    <ele>45.5</ele>
    <time>2025-09-11T13:15:21Z</time>
   </trkpt>
   <trkpt lat="53.4425010" lon="-6.1366090">
    <ele>45.6</ele>
    <time>2025-09-11T13:15:26Z</time>
   </trkpt>
   <trkpt lat="53.4425050" lon="-6.1365280">
    <ele>45.0</ele>
    <time>2025-09-11T13:15:34Z</time>
   </trkpt>
   <trkpt lat="53.4424750" lon="-6.1364180">
    <ele>45.3</ele>
    <time>2025-09-11T13:15:39Z</time>
   </trkpt>
   <trkpt lat="53.4424400" lon="-6.1363010">
    <ele>45.4</ele>
    <time>2025-09-11T13:15:45Z</time>
   </trkpt>
   <trkpt lat="53.4424110" lon="-6.1361780">
    <ele>45.7</ele>
    <time>2025-09-11T13:15:50Z</time>
   </trkpt>
   <trkpt lat="53.4423910" lon="-6.1360720">
    <ele>45.3</ele>
    <time>2025-09-11T13:15:56Z</time>
   </trkpt>
   <trkpt lat="53.4423720" lon="-6.1359800">
    <ele>44.6</ele>
    <time>2025-09-11T13:16:01Z</time>
   </trkpt>
   <trkpt lat="53.4423570" lon="-6.1358840">
    <ele>44.2</ele>
    <time>2025-09-11T13:16:06Z</time>
   </trkpt>
   <trkpt lat="53.4423440" lon="-6.1357730">
    <ele>43.2</ele>
    <time>2025-09-11T13:16:11Z</time>
   </trkpt>
   <trkpt lat="53.4423390" lon="-6.1356690">
    <ele>43.0</ele>
    <time>2025-09-11T13:16:16Z</time>
   </trkpt>
   <trkpt lat="53.4423240" lon="-6.1355660">
    <ele>43.2</ele>
    <time>2025-09-11T13:16:21Z</time>
   </trkpt>
   <trkpt lat="53.4423130" lon="-6.1354850">
    <ele>43.7</ele>
    <time>2025-09-11T13:16:27Z</time>
   </trkpt>
   <trkpt lat="53.4423140" lon="-6.1353730">
    <ele>43.8</ele>
    <time>2025-09-11T13:16:32Z</time>
   </trkpt>
   <trkpt lat="53.4422840" lon="-6.1352630">
    <ele>43.1</ele>
    <time>2025-09-11T13:16:37Z</time>
   </trkpt>
   <trkpt lat="53.4422560" lon="-6.1351540">
    <ele>42.6</ele>
    <time>2025-09-11T13:16:42Z</time>
   </trkpt>
   <trkpt lat="53.4422390" lon="-6.1350520">
    <ele>42.5</ele>
    <time>2025-09-11T13:16:47Z</time>
   </trkpt>
   <trkpt lat="53.4422140" lon="-6.1349490">
    <ele>43.2</ele>
    <time>2025-09-11T13:16:53Z</time>
   </trkpt>
   <trkpt lat="53.4421870" lon="-6.1348570">
    <ele>43.7</ele>
    <time>2025-09-11T13:16:58Z</time>
   </trkpt>
   <trkpt lat="53.4421600" lon="-6.1347650">
    <ele>43.5</ele>
    <time>2025-09-11T13:17:03Z</time>
   </trkpt>
   <trkpt lat="53.4421540" lon="-6.1346660">
    <ele>43.2</ele>
    <time>2025-09-11T13:17:08Z</time>
   </trkpt>
   <trkpt lat="53.4421370" lon="-6.1345520">
    <ele>42.5</ele>
    <time>2025-09-11T13:17:13Z</time>
   </trkpt>
   <trkpt lat="53.4421280" lon="-6.1344510">
    <ele>42.8</ele>
    <time>2025-09-11T13:17:19Z</time>
   </trkpt>
   <trkpt lat="53.4421150" lon="-6.1343680">
    <ele>42.8</ele>
    <time>2025-09-11T13:17:24Z</time>
   </trkpt>
   <trkpt lat="53.4420750" lon="-6.1344020">
    <ele>42.6</ele>
    <time>2025-09-11T13:17:56Z</time>
   </trkpt>
   <trkpt lat="53.4420260" lon="-6.1343830">
    <ele>41.0</ele>
    <time>2025-09-11T13:18:23Z</time>
   </trkpt>
   <trkpt lat="53.4418950" lon="-6.1343950">
    <ele>41.0</ele>
    <time>2025-09-11T13:18:29Z</time>
   </trkpt>
   <trkpt lat="53.4418080" lon="-6.1344140">
    <ele>41.0</ele>
    <time>2025-09-11T13:18:34Z</time>
   </trkpt>
   <trkpt lat="53.4417370" lon="-6.1344390">
    <ele>40.9</ele>
    <time>2025-09-11T13:18:40Z</time>
   </trkpt>
   <trkpt lat="53.4416640" lon="-6.1344670">
    <ele>40.9</ele>
    <time>2025-09-11T13:18:45Z</time>
   </trkpt>
   <trkpt lat="53.4416020" lon="-6.1344780">
    <ele>40.9</ele>
    <time>2025-09-11T13:18:50Z</time>
   </trkpt>
   <trkpt lat="53.4415310" lon="-6.1344980">
    <ele>40.9</ele>
    <time>2025-09-11T13:18:55Z</time>
   </trkpt>
   <trkpt lat="53.4414550" lon="-6.1344990">
    <ele>40.9</ele>
    <time>2025-09-11T13:19:01Z</time>
   </trkpt>
   <trkpt lat="53.4413770" lon="-6.1345060">
    <ele>40.9</ele>
    <time>2025-09-11T13:19:06Z</time>
   </trkpt>
   <trkpt lat="53.4413250" lon="-6.1345080">
    <ele>40.9</ele>
    <time>2025-09-11T13:19:12Z</time>
   </trkpt>
   <trkpt lat="53.4412760" lon="-6.1345320">
    <ele>40.9</ele>
    <time>2025-09-11T13:19:17Z</time>
   </trkpt>
   <trkpt lat="53.4412040" lon="-6.1345360">
    <ele>40.9</ele>
    <time>2025-09-11T13:19:23Z</time>
   </trkpt>
   <trkpt lat="53.4411340" lon="-6.1345540">
    <ele>40.9</ele>
    <time>2025-09-11T13:19:28Z</time>
   </trkpt>
   <trkpt lat="53.4410740" lon="-6.1345750">
    <ele>40.9</ele>
    <time>2025-09-11T13:19:33Z</time>
   </trkpt>
   <trkpt lat="53.4410090" lon="-6.1345710">
    <ele>40.9</ele>
    <time>2025-09-11T13:19:38Z</time>
   </trkpt>
   <trkpt lat="53.4409460" lon="-6.1345780">
    <ele>40.9</ele>
    <time>2025-09-11T13:19:43Z</time>
   </trkpt>
   <trkpt lat="53.4408850" lon="-6.1346270">
    <ele>40.9</ele>
    <time>2025-09-11T13:19:48Z</time>
   </trkpt>
   <trkpt lat="53.4408320" lon="-6.1346490">
    <ele>40.9</ele>
    <time>2025-09-11T13:19:53Z</time>
   </trkpt>
   <trkpt lat="53.4407650" lon="-6.1346350">
    <ele>40.9</ele>
    <time>2025-09-11T13:19:59Z</time>
   </trkpt>
   <trkpt lat="53.4407100" lon="-6.1346450">
    <ele>40.9</ele>
    <time>2025-09-11T13:20:04Z</time>
   </trkpt>
   <trkpt lat="53.4406430" lon="-6.1346440">
    <ele>40.9</ele>
    <time>2025-09-11T13:20:09Z</time>
   </trkpt>
   <trkpt lat="53.4405690" lon="-6.1346490">
    <ele>40.9</ele>
    <time>2025-09-11T13:20:14Z</time>
   </trkpt>
   <trkpt lat="53.4405100" lon="-6.1346500">
    <ele>40.9</ele>
    <time>2025-09-11T13:20:19Z</time>
   </trkpt>
   <trkpt lat="53.4404500" lon="-6.1346320">
    <ele>40.9</ele>
    <time>2025-09-11T13:20:25Z</time>
   </trkpt>
   <trkpt lat="53.4403900" lon="-6.1345940">
    <ele>40.9</ele>
    <time>2025-09-11T13:20:30Z</time>
   </trkpt>
   <trkpt lat="53.4403310" lon="-6.1345320">
    <ele>40.9</ele>
    <time>2025-09-11T13:20:35Z</time>
   </trkpt>
   <trkpt lat="53.4402890" lon="-6.1344530">
    <ele>40.9</ele>
    <time>2025-09-11T13:20:40Z</time>
   </trkpt>
   <trkpt lat="53.4402140" lon="-6.1344040">
    <ele>40.9</ele>
    <time>2025-09-11T13:20:45Z</time>
   </trkpt>
   <trkpt lat="53.4401630" lon="-6.1344030">
    <ele>40.9</ele>
    <time>2025-09-11T13:20:51Z</time>
   </trkpt>
   <trkpt lat="53.4401050" lon="-6.1344040">
    <ele>40.7</ele>
    <time>2025-09-11T13:20:56Z</time>
   </trkpt>
   <trkpt lat="53.4400600" lon="-6.1343950">
    <ele>40.7</ele>
    <time>2025-09-11T13:21:01Z</time>
   </trkpt>
   <trkpt lat="53.4400040" lon="-6.1344250">
    <ele>40.8</ele>
    <time>2025-09-11T13:21:06Z</time>
   </trkpt>
   <trkpt lat="53.4399380" lon="-6.1344550">
    <ele>40.8</ele>
    <time>2025-09-11T13:21:11Z</time>
   </trkpt>
   <trkpt lat="53.4398780" lon="-6.1344780">
    <ele>40.8</ele>
    <time>2025-09-11T13:21:17Z</time>
   </trkpt>
   <trkpt lat="53.4398080" lon="-6.1344930">
    <ele>40.8</ele>
    <time>2025-09-11T13:21:22Z</time>
   </trkpt>
   <trkpt lat="53.4397350" lon="-6.1344800">
    <ele>41.1</ele>
    <time>2025-09-11T13:21:27Z</time>
   </trkpt>
   <trkpt lat="53.4396740" lon="-6.1344500">
    <ele>41.1</ele>
    <time>2025-09-11T13:21:32Z</time>
   </trkpt>
   <trkpt lat="53.4396230" lon="-6.1344090">
    <ele>40.9</ele>
    <time>2025-09-11T13:21:37Z</time>
   </trkpt>
   <trkpt lat="53.4395650" lon="-6.1343630">
    <ele>41.0</ele>
    <time>2025-09-11T13:21:43Z</time>
   </trkpt>
   <trkpt lat="53.4395010" lon="-6.1343380">
    <ele>41.2</ele>
    <time>2025-09-11T13:21:48Z</time>
   </trkpt>
   <trkpt lat="53.4394410" lon="-6.1343370">
    <ele>41.1</ele>
    <time>2025-09-11T13:21:53Z</time>
   </trkpt>
   <trkpt lat="53.4393900" lon="-6.1342920">
    <ele>40.8</ele>
    <time>2025-09-11T13:21:58Z</time>
   </trkpt>
   <trkpt lat="53.4393270" lon="-6.1343000">
    <ele>40.7</ele>
    <time>2025-09-11T13:22:03Z</time>
   </trkpt>
   <trkpt lat="53.4392780" lon="-6.1342570">
    <ele>40.8</ele>
    <time>2025-09-11T13:22:09Z</time>
   </trkpt>
   <trkpt lat="53.4392100" lon="-6.1342680">
    <ele>40.8</ele>
    <time>2025-09-11T13:22:14Z</time>
   </trkpt>
   <trkpt lat="53.4391540" lon="-6.1342130">
    <ele>40.5</ele>
    <time>2025-09-11T13:22:19Z</time>
   </trkpt>
   <trkpt lat="53.4390890" lon="-6.1342130">
    <ele>40.3</ele>
    <time>2025-09-11T13:22:24Z</time>
   </trkpt>
   <trkpt lat="53.4390260" lon="-6.1341810">
    <ele>39.8</ele>
    <time>2025-09-11T13:22:29Z</time>
   </trkpt>
   <trkpt lat="53.4389570" lon="-6.1341510">
    <ele>39.6</ele>
    <time>2025-09-11T13:22:35Z</time>
   </trkpt>
   <trkpt lat="53.4388880" lon="-6.1341170">
    <ele>39.6</ele>
    <time>2025-09-11T13:22:40Z</time>
   </trkpt>
   <trkpt lat="53.4388240" lon="-6.1341030">
    <ele>39.5</ele>
    <time>2025-09-11T13:22:45Z</time>
   </trkpt>
   <trkpt lat="53.4387630" lon="-6.1340930">
    <ele>39.4</ele>
    <time>2025-09-11T13:22:50Z</time>
   </trkpt>
   <trkpt lat="53.4387150" lon="-6.1341230">
    <ele>39.0</ele>
    <time>2025-09-11T13:22:55Z</time>
   </trkpt>
   <trkpt lat="53.4386830" lon="-6.1341880">
    <ele>37.2</ele>
    <time>2025-09-11T13:23:10Z</time>
   </trkpt>
   <trkpt lat="53.4386530" lon="-6.1342470">
    <ele>36.6</ele>
    <time>2025-09-11T13:23:16Z</time>
   </trkpt>
   <trkpt lat="53.4386220" lon="-6.1341890">
    <ele>35.8</ele>
    <time>2025-09-11T13:23:40Z</time>
   </trkpt>
   <trkpt lat="53.4385780" lon="-6.1340850">
    <ele>35.8</ele>
    <time>2025-09-11T13:23:46Z</time>
   </trkpt>
   <trkpt lat="53.4385200" lon="-6.1339930">
    <ele>35.7</ele>
    <time>2025-09-11T13:23:51Z</time>
   </trkpt>
   <trkpt lat="53.4384620" lon="-6.1338950">
    <ele>35.5</ele>
    <time>2025-09-11T13:23:56Z</time>
   </trkpt>
   <trkpt lat="53.4384120" lon="-6.1337960">
    <ele>35.4</ele>
    <time>2025-09-11T13:24:01Z</time>
   </trkpt>
   <trkpt lat="53.4383540" lon="-6.1336970">
    <ele>35.7</ele>
    <time>2025-09-11T13:24:07Z</time>
   </trkpt>
   <trkpt lat="53.4383230" lon="-6.1335970">
    <ele>36.0</ele>
    <time>2025-09-11T13:24:12Z</time>
   </trkpt>
   <trkpt lat="53.4382840" lon="-6.1335100">
    <ele>36.0</ele>
    <time>2025-09-11T13:24:17Z</time>
   </trkpt>
   <trkpt lat="53.4382410" lon="-6.1334230">
    <ele>35.6</ele>
    <time>2025-09-11T13:24:23Z</time>
   </trkpt>
   <trkpt lat="53.4381960" lon="-6.1333420">
    <ele>36.0</ele>
    <time>2025-09-11T13:24:28Z</time>
   </trkpt>
   <trkpt lat="53.4381580" lon="-6.1332610">
    <ele>36.2</ele>
    <time>2025-09-11T13:24:33Z</time>
   </trkpt>
   <trkpt lat="53.4381210" lon="-6.1331760">
    <ele>36.1</ele>
    <time>2025-09-11T13:24:38Z</time>
   </trkpt>
   <trkpt lat="53.4380870" lon="-6.1330900">
    <ele>35.7</ele>
    <time>2025-09-11T13:24:43Z</time>
   </trkpt>
   <trkpt lat="53.4380430" lon="-6.1329930">
    <ele>35.5</ele>
    <time>2025-09-11T13:24:48Z</time>
   </trkpt>
   <trkpt lat="53.4379970" lon="-6.1329160">
    <ele>35.5</ele>
    <time>2025-09-11T13:24:53Z</time>
   </trkpt>
   <trkpt lat="53.4379520" lon="-6.1328410">
    <ele>35.5</ele>
    <time>2025-09-11T13:24:59Z</time>
   </trkpt>
   <trkpt lat="53.4379070" lon="-6.1327710">
    <ele>35.4</ele>
    <time>2025-09-11T13:25:04Z</time>
   </trkpt>
   <trkpt lat="53.4378670" lon="-6.1326970">
    <ele>35.3</ele>
    <time>2025-09-11T13:25:09Z</time>
   </trkpt>
   <trkpt lat="53.4378270" lon="-6.1326160">
    <ele>35.2</ele>
    <time>2025-09-11T13:25:14Z</time>
   </trkpt>
   <trkpt lat="53.4378290" lon="-6.1325060">
    <ele>34.8</ele>
    <time>2025-09-11T13:25:19Z</time>
   </trkpt>
   <trkpt lat="53.4378190" lon="-6.1323940">
    <ele>34.7</ele>
    <time>2025-09-11T13:25:24Z</time>
   </trkpt>
   <trkpt lat="53.4377950" lon="-6.1323020">
    <ele>34.6</ele>
    <time>2025-09-11T13:25:30Z</time>
   </trkpt>
   <trkpt lat="53.4377750" lon="-6.1322190">
    <ele>34.0</ele>
    <time>2025-09-11T13:25:35Z</time>
   </trkpt>
   <trkpt lat="53.4377510" lon="-6.1321210">
    <ele>34.1</ele>
    <time>2025-09-11T13:25:40Z</time>
   </trkpt>
   <trkpt lat="53.4377290" lon="-6.1320180">
    <ele>34.4</ele>
    <time>2025-09-11T13:25:45Z</time>
   </trkpt>
   <trkpt lat="53.4377050" lon="-6.1319010">
    <ele>34.2</ele>
    <time>2025-09-11T13:25:50Z</time>
   </trkpt>
   <trkpt lat="53.4376770" lon="-6.1317980">
    <ele>33.6</ele>
    <time>2025-09-11T13:25:55Z</time>
   </trkpt>
   <trkpt lat="53.4376600" lon="-6.1317060">
    <ele>33.2</ele>
    <time>2025-09-11T13:26:00Z</time>
   </trkpt>
   <trkpt lat="53.4376310" lon="-6.1316130">
    <ele>33.0</ele>
    <time>2025-09-11T13:26:05Z</time>
   </trkpt>
   <trkpt lat="53.4376110" lon="-6.1315120">
    <ele>32.9</ele>
    <time>2025-09-11T13:26:11Z</time>
   </trkpt>
   <trkpt lat="53.4375880" lon="-6.1314000">
    <ele>32.5</ele>
    <time>2025-09-11T13:26:16Z</time>
   </trkpt>
   <trkpt lat="53.4375490" lon="-6.1313050">
    <ele>32.6</ele>
    <time>2025-09-11T13:26:21Z</time>
   </trkpt>
   <trkpt lat="53.4375290" lon="-6.1312220">
    <ele>32.7</ele>
    <time>2025-09-11T13:26:26Z</time>
   </trkpt>
   <trkpt lat="53.4375390" lon="-6.1311210">
    <ele>31.9</ele>
    <time>2025-09-11T13:26:31Z</time>
   </trkpt>
   <trkpt lat="53.4375390" lon="-6.1310080">
    <ele>32.4</ele>
    <time>2025-09-11T13:26:36Z</time>
   </trkpt>
   <trkpt lat="53.4375270" lon="-6.1308970">
    <ele>32.6</ele>
    <time>2025-09-11T13:26:41Z</time>
   </trkpt>
   <trkpt lat="53.4375090" lon="-6.1307930">
    <ele>32.8</ele>
    <time>2025-09-11T13:26:46Z</time>
   </trkpt>
   <trkpt lat="53.4374980" lon="-6.1306890">
    <ele>32.7</ele>
    <time>2025-09-11T13:26:51Z</time>
   </trkpt>
   <trkpt lat="53.4374870" lon="-6.1305850">
    <ele>32.5</ele>
    <time>2025-09-11T13:26:57Z</time>
   </trkpt>
   <trkpt lat="53.4374630" lon="-6.1304800">
    <ele>32.2</ele>
    <time>2025-09-11T13:27:02Z</time>
   </trkpt>
   <trkpt lat="53.4374440" lon="-6.1303890">
    <ele>31.9</ele>
    <time>2025-09-11T13:27:07Z</time>
   </trkpt>
   <trkpt lat="53.4374390" lon="-6.1302720">
    <ele>31.6</ele>
    <time>2025-09-11T13:27:12Z</time>
   </trkpt>
   <trkpt lat="53.4374220" lon="-6.1301920">
    <ele>31.4</ele>
    <time>2025-09-11T13:27:17Z</time>
   </trkpt>
   <trkpt lat="53.4373980" lon="-6.1300980">
    <ele>31.3</ele>
    <time>2025-09-11T13:27:22Z</time>
   </trkpt>
   <trkpt lat="53.4373560" lon="-6.1299980">
    <ele>31.2</ele>
    <time>2025-09-11T13:27:28Z</time>
   </trkpt>
   <trkpt lat="53.4373170" lon="-6.1299100">
    <ele>31.0</ele>
    <time>2025-09-11T13:27:33Z</time>
   </trkpt>
   <trkpt lat="53.4373090" lon="-6.1298050">
    <ele>31.0</ele>
    <time>2025-09-11T13:27:38Z</time>
   </trkpt>
   <trkpt lat="53.4373000" lon="-6.1297110">
    <ele>30.9</ele>
    <time>2025-09-11T13:27:44Z</time>
   </trkpt>
   <trkpt lat="53.4372820" lon="-6.1296170">
    <ele>30.4</ele>
    <time>2025-09-11T13:27:49Z</time>
   </trkpt>
   <trkpt lat="53.4372130" lon="-6.1296110">
    <ele>30.7</ele>
    <time>2025-09-11T13:27:54Z</time>
   </trkpt>
   <trkpt lat="53.4371350" lon="-6.1296470">
    <ele>30.9</ele>
    <time>2025-09-11T13:27:59Z</time>
   </trkpt>
   <trkpt lat="53.4370670" lon="-6.1296490">
    <ele>31.0</ele>
    <time>2025-09-11T13:28:04Z</time>
   </trkpt>
   <trkpt lat="53.4370020" lon="-6.1296440">
    <ele>31.0</ele>
    <time>2025-09-11T13:28:09Z</time>
   </trkpt>
   <trkpt lat="53.4369430" lon="-6.1296530">
    <ele>31.0</ele>
    <time>2025-09-11T13:28:14Z</time>
   </trkpt>
   <trkpt lat="53.4368850" lon="-6.1296650">
    <ele>30.9</ele>
    <time>2025-09-11T13:28:19Z</time>
   </trkpt>
   <trkpt lat="53.4368180" lon="-6.1296710">
    <ele>30.2</ele>
    <time>2025-09-11T13:28:24Z</time>
   </trkpt>
   <trkpt lat="53.4367510" lon="-6.1296750">
    <ele>29.9</ele>
    <time>2025-09-11T13:28:30Z</time>
   </trkpt>
   <trkpt lat="53.4366800" lon="-6.1296840">
    <ele>30.4</ele>
    <time>2025-09-11T13:28:35Z</time>
   </trkpt>
   <trkpt lat="53.4366120" lon="-6.1297190">
    <ele>29.7</ele>
    <time>2025-09-11T13:28:40Z</time>
   </trkpt>
   <trkpt lat="53.4365490" lon="-6.1297390">
    <ele>29.2</ele>
    <time>2025-09-11T13:28:45Z</time>
   </trkpt>
   <trkpt lat="53.4364870" lon="-6.1297370">
    <ele>29.0</ele>
    <time>2025-09-11T13:28:51Z</time>
   </trkpt>
   <trkpt lat="53.4364280" lon="-6.1296900">
    <ele>28.4</ele>
    <time>2025-09-11T13:28:56Z</time>
   </trkpt>
   <trkpt lat="53.4363730" lon="-6.1296360">
    <ele>28.1</ele>
    <time>2025-09-11T13:29:01Z</time>
   </trkpt>
   <trkpt lat="53.4363130" lon="-6.1295950">
    <ele>28.3</ele>
    <time>2025-09-11T13:29:07Z</time>
   </trkpt>
   <trkpt lat="53.4362580" lon="-6.1295540">
    <ele>27.8</ele>
    <time>2025-09-11T13:29:12Z</time>
   </trkpt>
   <trkpt lat="53.4361930" lon="-6.1295150">
    <ele>27.0</ele>
    <time>2025-09-11T13:29:17Z</time>
   </trkpt>
   <trkpt lat="53.4361360" lon="-6.1294700">
    <ele>26.6</ele>
    <time>2025-09-11T13:29:22Z</time>
   </trkpt>
   <trkpt lat="53.4360710" lon="-6.1294710">
    <ele>26.5</ele>
    <time>2025-09-11T13:29:27Z</time>
   </trkpt>
   <trkpt lat="53.4360100" lon="-6.1294310">
    <ele>26.1</ele>
    <time>2025-09-11T13:29:33Z</time>
   </trkpt>
   <trkpt lat="53.4359520" lon="-6.1294020">
    <ele>25.9</ele>
    <time>2025-09-11T13:29:38Z</time>
   </trkpt>
   <trkpt lat="53.4358840" lon="-6.1293700">
    <ele>26.0</ele>
    <time>2025-09-11T13:29:43Z</time>
   </trkpt>
   <trkpt lat="53.4358170" lon="-6.1293400">
    <ele>25.1</ele>
    <time>2025-09-11T13:29:49Z</time>
   </trkpt>
   <trkpt lat="53.4357740" lon="-6.1292530">
    <ele>24.5</ele>
    <time>2025-09-11T13:29:54Z</time>
   </trkpt>
   <trkpt lat="53.4357350" lon="-6.1291720">
    <ele>23.4</ele>
    <time>2025-09-11T13:29:59Z</time>
   </trkpt>
   <trkpt lat="53.4357230" lon="-6.1290660">
    <ele>22.9</ele>
    <time>2025-09-11T13:30:05Z</time>
   </trkpt>
   <trkpt lat="53.4357310" lon="-6.1289680">
    <ele>22.6</ele>
    <time>2025-09-11T13:30:10Z</time>
   </trkpt>
   <trkpt lat="53.4357120" lon="-6.1288650">
    <ele>22.5</ele>
    <time>2025-09-11T13:30:15Z</time>
   </trkpt>
   <trkpt lat="53.4356970" lon="-6.1287720">
    <ele>22.5</ele>
    <time>2025-09-11T13:30:20Z</time>
   </trkpt>
   <trkpt lat="53.4356770" lon="-6.1286620">
    <ele>22.5</ele>
    <time>2025-09-11T13:30:25Z</time>
   </trkpt>
   <trkpt lat="53.4356420" lon="-6.1285580">
    <ele>21.9</ele>
    <time>2025-09-11T13:30:30Z</time>
   </trkpt>
   <trkpt lat="53.4356230" lon="-6.1284590">
    <ele>21.8</ele>
    <time>2025-09-11T13:30:36Z</time>
   </trkpt>
   <trkpt lat="53.4355990" lon="-6.1283690">
    <ele>21.7</ele>
    <time>2025-09-11T13:30:41Z</time>
   </trkpt>
   <trkpt lat="53.4355830" lon="-6.1282790">
    <ele>21.5</ele>
    <time>2025-09-11T13:30:46Z</time>
   </trkpt>
   <trkpt lat="53.4355530" lon="-6.1281990">
    <ele>21.5</ele>
    <time>2025-09-11T13:30:51Z</time>
   </trkpt>
   <trkpt lat="53.4355300" lon="-6.1281080">
    <ele>21.3</ele>
    <time>2025-09-11T13:30:57Z</time>
   </trkpt>
   <trkpt lat="53.4355030" lon="-6.1280090">
    <ele>21.1</ele>
    <time>2025-09-11T13:31:02Z</time>
   </trkpt>
   <trkpt lat="53.4354860" lon="-6.1279050">
    <ele>21.0</ele>
    <time>2025-09-11T13:31:07Z</time>
   </trkpt>
   <trkpt lat="53.4354630" lon="-6.1277930">
    <ele>20.6</ele>
    <time>2025-09-11T13:31:13Z</time>
   </trkpt>
   <trkpt lat="53.4354400" lon="-6.1277020">
    <ele>20.5</ele>
    <time>2025-09-11T13:31:18Z</time>
   </trkpt>
   <trkpt lat="53.4354400" lon="-6.1275920">
    <ele>20.1</ele>
    <time>2025-09-11T13:31:23Z</time>
   </trkpt>
   <trkpt lat="53.4354390" lon="-6.1274960">
    <ele>20.0</ele>
    <time>2025-09-11T13:31:28Z</time>
   </trkpt>
   <trkpt lat="53.4354360" lon="-6.1274030">
    <ele>20.2</ele>
    <time>2025-09-11T13:31:34Z</time>
   </trkpt>
   <trkpt lat="53.4354000" lon="-6.1273170">
    <ele>20.3</ele>
    <time>2025-09-11T13:31:39Z</time>
   </trkpt>
   <trkpt lat="53.4353300" lon="-6.1272720">
    <ele>20.3</ele>
    <time>2025-09-11T13:31:44Z</time>
   </trkpt>
   <trkpt lat="53.4352620" lon="-6.1272500">
    <ele>20.3</ele>
    <time>2025-09-11T13:31:49Z</time>
   </trkpt>
   <trkpt lat="53.4352020" lon="-6.1272210">
    <ele>20.1</ele>
    <time>2025-09-11T13:31:55Z</time>
   </trkpt>
   <trkpt lat="53.4351330" lon="-6.1271740">
    <ele>20.3</ele>
    <time>2025-09-11T13:32:00Z</time>
   </trkpt>
   <trkpt lat="53.4350690" lon="-6.1271340">
    <ele>19.9</ele>
    <time>2025-09-11T13:32:05Z</time>
   </trkpt>
   <trkpt lat="53.4350100" lon="-6.1270920">
    <ele>19.6</ele>
    <time>2025-09-11T13:32:11Z</time>
   </trkpt>
   <trkpt lat="53.4349570" lon="-6.1270340">
    <ele>20.0</ele>
    <time>2025-09-11T13:32:16Z</time>
   </trkpt>
   <trkpt lat="53.4349000" lon="-6.1269780">
    <ele>20.1</ele>
    <time>2025-09-11T13:32:21Z</time>
   </trkpt>
   <trkpt lat="53.4348460" lon="-6.1269150">
    <ele>19.6</ele>
    <time>2025-09-11T13:32:26Z</time>
   </trkpt>
   <trkpt lat="53.4347960" lon="-6.1268560">
    <ele>19.9</ele>
    <time>2025-09-11T13:32:32Z</time>
   </trkpt>
   <trkpt lat="53.4347470" lon="-6.1267700">
    <ele>19.6</ele>
    <time>2025-09-11T13:32:37Z</time>
   </trkpt>
   <trkpt lat="53.4346970" lon="-6.1266990">
    <ele>19.0</ele>
    <time>2025-09-11T13:32:42Z</time>
   </trkpt>
   <trkpt lat="53.4346630" lon="-6.1266240">
    <ele>18.4</ele>
    <time>2025-09-11T13:32:48Z</time>
   </trkpt>
   <trkpt lat="53.4346170" lon="-6.1265530">
    <ele>18.1</ele>
    <time>2025-09-11T13:32:53Z</time>
   </trkpt>
   <trkpt lat="53.4345630" lon="-6.1264870">
    <ele>17.6</ele>
    <time>2025-09-11T13:32:58Z</time>
   </trkpt>
   <trkpt lat="53.4345140" lon="-6.1264190">
    <ele>17.1</ele>
    <time>2025-09-11T13:33:03Z</time>
   </trkpt>
   <trkpt lat="53.4344540" lon="-6.1263600">
    <ele>16.3</ele>
    <time>2025-09-11T13:33:09Z</time>
   </trkpt>
   <trkpt lat="53.4344160" lon="-6.1262750">
    <ele>15.2</ele>
    <time>2025-09-11T13:33:14Z</time>
   </trkpt>
   <trkpt lat="53.4343770" lon="-6.1261810">
    <ele>14.8</ele>
    <time>2025-09-11T13:33:19Z</time>
   </trkpt>
   <trkpt lat="53.4343230" lon="-6.1261590">
    <ele>14.5</ele>
    <time>2025-09-11T13:33:43Z</time>
   </trkpt>
   <trkpt lat="53.4342580" lon="-6.1260810">
    <ele>14.5</ele>
    <time>2025-09-11T13:33:48Z</time>
   </trkpt>
   <trkpt lat="53.4341920" lon="-6.1260610">
    <ele>14.5</ele>
    <time>2025-09-11T13:33:53Z</time>
   </trkpt>
   <trkpt lat="53.4341460" lon="-6.1260330">
    <ele>14.0</ele>
    <time>2025-09-11T13:34:22Z</time>
   </trkpt>
   <trkpt lat="53.4341190" lon="-6.1258810">
    <ele>13.8</ele>
    <time>2025-09-11T13:34:28Z</time>
   </trkpt>
   <trkpt lat="53.4341130" lon="-6.1257600">
    <ele>13.6</ele>
    <time>2025-09-11T13:34:33Z</time>
   </trkpt>
   <trkpt lat="53.4341030" lon="-6.1256510">
    <ele>13.5</ele>
    <time>2025-09-11T13:34:38Z</time>
   </trkpt>
   <trkpt lat="53.4340850" lon="-6.1255530">
    <ele>13.5</ele>
    <time>2025-09-11T13:34:43Z</time>
   </trkpt>
   <trkpt lat="53.4340640" lon="-6.1254510">
    <ele>13.5</ele>
    <time>2025-09-11T13:34:48Z</time>
   </trkpt>
   <trkpt lat="53.4340730" lon="-6.1253510">
    <ele>13.4</ele>
    <time>2025-09-11T13:34:53Z</time>
   </trkpt>
   <trkpt lat="53.4340570" lon="-6.1252410">
    <ele>12.8</ele>
    <time>2025-09-11T13:34:58Z</time>
   </trkpt>
   <trkpt lat="53.4340120" lon="-6.1252850">
    <ele>12.0</ele>
    <time>2025-09-11T13:35:11Z</time>
   </trkpt>
   <trkpt lat="53.4339810" lon="-6.1250920">
    <ele>11.7</ele>
    <time>2025-09-11T13:35:16Z</time>
   </trkpt>
   <trkpt lat="53.4339710" lon="-6.1249740">
    <ele>11.7</ele>
    <time>2025-09-11T13:35:22Z</time>
   </trkpt>
   <trkpt lat="53.4339550" lon="-6.1248720">
    <ele>11.2</ele>
    <time>2025-09-11T13:35:27Z</time>
   </trkpt>
   <trkpt lat="53.4339470" lon="-6.1247690">
    <ele>10.9</ele>
    <time>2025-09-11T13:35:32Z</time>
   </trkpt>
   <trkpt lat="53.4339040" lon="-6.1246920">
    <ele>10.6</ele>
    <time>2025-09-11T13:35:37Z</time>
   </trkpt>
   <trkpt lat="53.4338400" lon="-6.1246150">
    <ele>10.2</ele>
    <time>2025-09-11T13:35:43Z</time>
   </trkpt>
   <trkpt lat="53.4337830" lon="-6.1246220">
    <ele>10.1</ele>
    <time>2025-09-11T13:35:48Z</time>
   </trkpt>
   <trkpt lat="53.4337360" lon="-6.1246600">
    <ele>10.3</ele>
    <time>2025-09-11T13:35:53Z</time>
   </trkpt>
   <trkpt lat="53.4337320" lon="-6.1247380">
    <ele>10.4</ele>
    <time>2025-09-11T13:35:58Z</time>
   </trkpt>
   <trkpt lat="53.4337460" lon="-6.1248110">
    <ele>10.8</ele>
    <time>2025-09-11T13:36:18Z</time>
   </trkpt>
   <trkpt lat="53.4337280" lon="-6.1248840">
    <ele>10.9</ele>
    <time>2025-09-11T13:38:57Z</time>
   </trkpt>
   <trkpt lat="53.4337220" lon="-6.1248060">
    <ele>10.8</ele>
    <time>2025-09-11T13:40:11Z</time>
   </trkpt>
   <trkpt lat="53.4337710" lon="-6.1248250">
    <ele>10.9</ele>
    <time>2025-09-11T13:40:33Z</time>
   </trkpt>
   <trkpt lat="53.4337490" lon="-6.1247550">
    <ele>10.9</ele>
    <time>2025-09-11T13:40:59Z</time>
   </trkpt>
   <trkpt lat="53.4337050" lon="-6.1248130">
    <ele>10.9</ele>
    <time>2025-09-11T13:41:22Z</time>
   </trkpt>
   <trkpt lat="53.4336580" lon="-6.1248160">
    <ele>10.9</ele>
    <time>2025-09-11T13:41:28Z</time>
   </trkpt>
   <trkpt lat="53.4337090" lon="-6.1248020">
    <ele>10.9</ele>
    <time>2025-09-11T13:41:39Z</time>
   </trkpt>
   <trkpt lat="53.4337350" lon="-6.1247400">
    <ele>10.9</ele>
    <time>2025-09-11T13:41:46Z</time>
   </trkpt>
   <trkpt lat="53.4337620" lon="-6.1246170">
    <ele>10.8</ele>
    <time>2025-09-11T13:41:51Z</time>
   </trkpt>
   <trkpt lat="53.4337680" lon="-6.1245180">
    <ele>10.5</ele>
    <time>2025-09-11T13:42:00Z</time>
   </trkpt>
   <trkpt lat="53.4337620" lon="-6.1243800">
    <ele>10.4</ele>
    <time>2025-09-11T13:42:05Z</time>
   </trkpt>
   <trkpt lat="53.4337820" lon="-6.1243070">
    <ele>9.9</ele>
    <time>2025-09-11T13:42:11Z</time>
   </trkpt>
   <trkpt lat="53.4338270" lon="-6.1242690">
    <ele>9.5</ele>
    <time>2025-09-11T13:42:17Z</time>
   </trkpt>
   <trkpt lat="53.4338200" lon="-6.1241860">
    <ele>10.1</ele>
    <time>2025-09-11T13:42:35Z</time>
   </trkpt>
   <trkpt lat="53.4338110" lon="-6.1240520">
    <ele>10.0</ele>
    <time>2025-09-11T13:42:40Z</time>
   </trkpt>
   <trkpt lat="53.4338600" lon="-6.1239980">
    <ele>10.0</ele>
    <time>2025-09-11T13:42:46Z</time>
   </trkpt>
   <trkpt lat="53.4339210" lon="-6.1239700">
    <ele>9.7</ele>
    <time>2025-09-11T13:42:51Z</time>
   </trkpt>
   <trkpt lat="53.4339720" lon="-6.1239500">
    <ele>9.9</ele>
    <time>2025-09-11T13:43:05Z</time>
   </trkpt>
   <trkpt lat="53.4340350" lon="-6.1238820">
    <ele>10.2</ele>
    <time>2025-09-11T13:43:10Z</time>
   </trkpt>
   <trkpt lat="53.4340570" lon="-6.1238010">
    <ele>10.1</ele>
    <time>2025-09-11T13:43:15Z</time>
   </trkpt>
   <trkpt lat="53.4340720" lon="-6.1237260">
    <ele>10.0</ele>
    <time>2025-09-11T13:43:22Z</time>
   </trkpt>
   <trkpt lat="53.4340420" lon="-6.1236580">
    <ele>8.3</ele>
    <time>2025-09-11T13:43:44Z</time>
   </trkpt>
   <trkpt lat="53.4339930" lon="-6.1236510">
    <ele>8.5</ele>
    <time>2025-09-11T13:43:49Z</time>
   </trkpt>
   <trkpt lat="53.4339540" lon="-6.1237030">
    <ele>7.1</ele>
    <time>2025-09-11T13:43:55Z</time>
   </trkpt>
   <trkpt lat="53.4339200" lon="-6.1237740">
    <ele>6.3</ele>
    <time>2025-09-11T13:44:01Z</time>
   </trkpt>
   <trkpt lat="53.4338750" lon="-6.1238150">
    <ele>6.0</ele>
    <time>2025-09-11T13:44:06Z</time>
   </trkpt>
   <trkpt lat="53.4338330" lon="-6.1238660">
    <ele>5.9</ele>
    <time>2025-09-11T13:44:18Z</time>
   </trkpt>
   <trkpt lat="53.4337530" lon="-6.1239440">
    <ele>5.8</ele>
    <time>2025-09-11T13:44:23Z</time>
   </trkpt>
   <trkpt lat="53.4336980" lon="-6.1240050">
    <ele>5.9</ele>
    <time>2025-09-11T13:44:28Z</time>
   </trkpt>
   <trkpt lat="53.4336420" lon="-6.1240280">
    <ele>6.1</ele>
    <time>2025-09-11T13:44:33Z</time>
   </trkpt>
   <trkpt lat="53.4335810" lon="-6.1240460">
    <ele>6.2</ele>
    <time>2025-09-11T13:44:38Z</time>
   </trkpt>
   <trkpt lat="53.4335080" lon="-6.1240480">
    <ele>6.2</ele>
    <time>2025-09-11T13:44:44Z</time>
   </trkpt>
   <trkpt lat="53.4334440" lon="-6.1240520">
    <ele>6.5</ele>
    <time>2025-09-11T13:44:49Z</time>
   </trkpt>
   <trkpt lat="53.4333740" lon="-6.1240440">
    <ele>6.5</ele>
    <time>2025-09-11T13:44:54Z</time>
   </trkpt>
   <trkpt lat="53.4333040" lon="-6.1240490">
    <ele>6.3</ele>
    <time>2025-09-11T13:45:00Z</time>
   </trkpt>
   <trkpt lat="53.4332480" lon="-6.1240590">
    <ele>6.3</ele>
    <time>2025-09-11T13:45:05Z</time>
   </trkpt>
   <trkpt lat="53.4331900" lon="-6.1240840">
    <ele>6.3</ele>
    <time>2025-09-11T13:45:10Z</time>
   </trkpt>
   <trkpt lat="53.4331300" lon="-6.1241090">
    <ele>6.3</ele>
    <time>2025-09-11T13:45:15Z</time>
   </trkpt>
   <trkpt lat="53.4330630" lon="-6.1241470">
    <ele>6.1</ele>
    <time>2025-09-11T13:45:20Z</time>
   </trkpt>
   <trkpt lat="53.4330020" lon="-6.1241950">
    <ele>5.9</ele>
    <time>2025-09-11T13:45:26Z</time>
   </trkpt>
   <trkpt lat="53.4329550" lon="-6.1241620">
    <ele>5.9</ele>
    <time>2025-09-11T13:45:31Z</time>
   </trkpt>
   <trkpt lat="53.4330000" lon="-6.1241430">
    <ele>5.5</ele>
    <time>2025-09-11T13:47:16Z</time>
   </trkpt>
   <trkpt lat="53.4329670" lon="-6.1241940">
    <ele>3.8</ele>
    <time>2025-09-11T13:59:19Z</time>
   </trkpt>
   <trkpt lat="53.4329990" lon="-6.1241400">
    <ele>4.1</ele>
    <time>2025-09-11T14:02:23Z</time>
   </trkpt>
   <trkpt lat="53.4330810" lon="-6.1241360">
    <ele>4.3</ele>
    <time>2025-09-11T14:02:28Z</time>
   </trkpt>
   <trkpt lat="53.4331250" lon="-6.1240940">
    <ele>4.3</ele>
    <time>2025-09-11T14:02:36Z</time>
   </trkpt>
   <trkpt lat="53.4331940" lon="-6.1240940">
    <ele>3.6</ele>
    <time>2025-09-11T14:02:42Z</time>
   </trkpt>
   <trkpt lat="53.4332460" lon="-6.1241080">
    <ele>3.5</ele>
    <time>2025-09-11T14:02:47Z</time>
   </trkpt>
   <trkpt lat="53.4333030" lon="-6.1241250">
    <ele>3.7</ele>
    <time>2025-09-11T14:02:52Z</time>
   </trkpt>
   <trkpt lat="53.4333630" lon="-6.1241400">
    <ele>3.6</ele>
    <time>2025-09-11T14:02:57Z</time>
   </trkpt>
   <trkpt lat="53.4334440" lon="-6.1241550">
    <ele>3.2</ele>
    <time>2025-09-11T14:03:05Z</time>
   </trkpt>
   <trkpt lat="53.4335050" lon="-6.1241700">
    <ele>3.2</ele>
    <time>2025-09-11T14:03:10Z</time>
   </trkpt>
   <trkpt lat="53.4335710" lon="-6.1241020">
    <ele>3.2</ele>
    <time>2025-09-11T14:03:15Z</time>
   </trkpt>
   <trkpt lat="53.4336480" lon="-6.1239870">
    <ele>3.2</ele>
    <time>2025-09-11T14:03:20Z</time>
   </trkpt>
   <trkpt lat="53.4337330" lon="-6.1239360">
    <ele>3.2</ele>
    <time>2025-09-11T14:03:25Z</time>
   </trkpt>
   <trkpt lat="53.4337980" lon="-6.1238630">
    <ele>3.2</ele>
    <time>2025-09-11T14:03:30Z</time>
   </trkpt>
   <trkpt lat="53.4338630" lon="-6.1238050">
    <ele>3.5</ele>
    <time>2025-09-11T14:03:35Z</time>
   </trkpt>
   <trkpt lat="53.4339050" lon="-6.1237640">
    <ele>3.6</ele>
    <time>2025-09-11T14:03:41Z</time>
   </trkpt>
   <trkpt lat="53.4339490" lon="-6.1237120">
    <ele>3.4</ele>
    <time>2025-09-11T14:03:47Z</time>
   </trkpt>
   <trkpt lat="53.4340070" lon="-6.1236670">
    <ele>3.3</ele>
    <time>2025-09-11T14:03:52Z</time>
   </trkpt>
   <trkpt lat="53.4340470" lon="-6.1236210">
    <ele>3.9</ele>
    <time>2025-09-11T14:03:59Z</time>
   </trkpt>
   <trkpt lat="53.4340880" lon="-6.1236840">
    <ele>4.4</ele>
    <time>2025-09-11T14:04:04Z</time>
   </trkpt>
   <trkpt lat="53.4340430" lon="-6.1237050">
    <ele>3.6</ele>
    <time>2025-09-11T14:05:40Z</time>
   </trkpt>
   <trkpt lat="53.4339960" lon="-6.1237070">
    <ele>3.1</ele>
    <time>2025-09-11T14:06:03Z</time>
   </trkpt>
   <trkpt lat="53.4340420" lon="-6.1237040">
    <ele>3.1</ele>
    <time>2025-09-11T14:06:15Z</time>
   </trkpt>
   <trkpt lat="53.4340960" lon="-6.1238010">
    <ele>4.4</ele>
    <time>2025-09-11T14:06:20Z</time>
   </trkpt>
   <trkpt lat="53.4341530" lon="-6.1238120">
    <ele>5.2</ele>
    <time>2025-09-11T14:06:25Z</time>
   </trkpt>
   <trkpt lat="53.4342450" lon="-6.1237520">
    <ele>5.7</ele>
    <time>2025-09-11T14:06:30Z</time>
   </trkpt>
   <trkpt lat="53.4343230" lon="-6.1237100">
    <ele>6.3</ele>
    <time>2025-09-11T14:06:35Z</time>
   </trkpt>
   <trkpt lat="53.4343930" lon="-6.1236870">
    <ele>6.9</ele>
    <time>2025-09-11T14:06:41Z</time>
   </trkpt>
   <trkpt lat="53.4344620" lon="-6.1236410">
    <ele>8.6</ele>
    <time>2025-09-11T14:06:46Z</time>
   </trkpt>
   <trkpt lat="53.4345180" lon="-6.1235780">
    <ele>8.6</ele>
    <time>2025-09-11T14:06:51Z</time>
   </trkpt>
   <trkpt lat="53.4345740" lon="-6.1235060">
    <ele>8.1</ele>
    <time>2025-09-11T14:06:57Z</time>
   </trkpt>
   <trkpt lat="53.4346370" lon="-6.1234490">
    <ele>8.3</ele>
    <time>2025-09-11T14:07:02Z</time>
   </trkpt>
   <trkpt lat="53.4347010" lon="-6.1233820">
    <ele>8.2</ele>
    <time>2025-09-11T14:07:07Z</time>
   </trkpt>
   <trkpt lat="53.4347740" lon="-6.1233670">
    <ele>9.1</ele>
    <time>2025-09-11T14:07:13Z</time>
   </trkpt>
   <trkpt lat="53.4348510" lon="-6.1232920">
    <ele>9.4</ele>
    <time>2025-09-11T14:07:18Z</time>
   </trkpt>
   <trkpt lat="53.4349190" lon="-6.1232070">
    <ele>9.5</ele>
    <time>2025-09-11T14:07:23Z</time>
   </trkpt>
   <trkpt lat="53.4349900" lon="-6.1231330">
    <ele>9.6</ele>
    <time>2025-09-11T14:07:29Z</time>
   </trkpt>
   <trkpt lat="53.4350470" lon="-6.1230620">
    <ele>9.9</ele>
    <time>2025-09-11T14:07:34Z</time>
   </trkpt>
   <trkpt lat="53.4350920" lon="-6.1229830">
    <ele>10.2</ele>
    <time>2025-09-11T14:07:39Z</time>
   </trkpt>
   <trkpt lat="53.4351520" lon="-6.1229090">
    <ele>11.1</ele>
    <time>2025-09-11T14:07:45Z</time>
   </trkpt>
   <trkpt lat="53.4352260" lon="-6.1228590">
    <ele>11.5</ele>
    <time>2025-09-11T14:07:50Z</time>
   </trkpt>
   <trkpt lat="53.4352990" lon="-6.1228070">
    <ele>11.7</ele>
    <time>2025-09-11T14:07:56Z</time>
   </trkpt>
   <trkpt lat="53.4353710" lon="-6.1227720">
    <ele>11.2</ele>
    <time>2025-09-11T14:08:01Z</time>
   </trkpt>
   <trkpt lat="53.4354430" lon="-6.1227300">
    <ele>10.7</ele>
    <time>2025-09-11T14:08:06Z</time>
   </trkpt>
   <trkpt lat="53.4355120" lon="-6.1226650">
    <ele>10.8</ele>
    <time>2025-09-11T14:08:11Z</time>
   </trkpt>
   <trkpt lat="53.4355880" lon="-6.1226060">
    <ele>10.9</ele>
    <time>2025-09-11T14:08:17Z</time>
   </trkpt>
   <trkpt lat="53.4356550" lon="-6.1225480">
    <ele>10.6</ele>
    <time>2025-09-11T14:08:22Z</time>
   </trkpt>
   <trkpt lat="53.4357180" lon="-6.1224730">
    <ele>11.0</ele>
    <time>2025-09-11T14:08:28Z</time>
   </trkpt>
   <trkpt lat="53.4357460" lon="-6.1223950">
    <ele>11.4</ele>
    <time>2025-09-11T14:08:33Z</time>
   </trkpt>
   <trkpt lat="53.4357820" lon="-6.1223380">
    <ele>10.4</ele>
    <time>2025-09-11T14:08:42Z</time>
   </trkpt>
   <trkpt lat="53.4359080" lon="-6.1222060">
    <ele>11.1</ele>
    <time>2025-09-11T14:08:48Z</time>
   </trkpt>
   <trkpt lat="53.4359900" lon="-6.1221990">
    <ele>12.3</ele>
    <time>2025-09-11T14:08:53Z</time>
   </trkpt>
   <trkpt lat="53.4360500" lon="-6.1221750">
    <ele>12.0</ele>
    <time>2025-09-11T14:08:58Z</time>
   </trkpt>
   <trkpt lat="53.4361260" lon="-6.1220810">
    <ele>11.8</ele>
    <time>2025-09-11T14:09:03Z</time>
   </trkpt>
   <trkpt lat="53.4362100" lon="-6.1220340">
    <ele>12.4</ele>
    <time>2025-09-11T14:09:09Z</time>
   </trkpt>
   <trkpt lat="53.4362860" lon="-6.1220010">
    <ele>12.0</ele>
    <time>2025-09-11T14:09:14Z</time>
   </trkpt>
   <trkpt lat="53.4363590" lon="-6.1219910">
    <ele>11.8</ele>
    <time>2025-09-11T14:09:19Z</time>
   </trkpt>
   <trkpt lat="53.4364390" lon="-6.1219970">
    <ele>11.8</ele>
    <time>2025-09-11T14:09:25Z</time>
   </trkpt>
   <trkpt lat="53.4365090" lon="-6.1220000">
    <ele>11.8</ele>
    <time>2025-09-11T14:09:30Z</time>
   </trkpt>
   <trkpt lat="53.4365930" lon="-6.1219970">
    <ele>11.5</ele>
    <time>2025-09-11T14:09:35Z</time>
   </trkpt>
   <trkpt lat="53.4366810" lon="-6.1219750">
    <ele>11.0</ele>
    <time>2025-09-11T14:09:40Z</time>
   </trkpt>
   <trkpt lat="53.4367490" lon="-6.1219820">
    <ele>11.2</ele>
    <time>2025-09-11T14:09:46Z</time>
   </trkpt>
   <trkpt lat="53.4368250" lon="-6.1220010">
    <ele>11.1</ele>
    <time>2025-09-11T14:09:51Z</time>
   </trkpt>
   <trkpt lat="53.4369070" lon="-6.1220090">
    <ele>11.4</ele>
    <time>2025-09-11T14:09:56Z</time>
   </trkpt>
   <trkpt lat="53.4369820" lon="-6.1220370">
    <ele>11.9</ele>
    <time>2025-09-11T14:10:02Z</time>
   </trkpt>
   <trkpt lat="53.4370600" lon="-6.1220740">
    <ele>12.2</ele>
    <time>2025-09-11T14:10:07Z</time>
   </trkpt>
   <trkpt lat="53.4371450" lon="-6.1221210">
    <ele>11.8</ele>
    <time>2025-09-11T14:10:12Z</time>
   </trkpt>
   <trkpt lat="53.4372140" lon="-6.1221700">
    <ele>11.5</ele>
    <time>2025-09-11T14:10:18Z</time>
   </trkpt>
   <trkpt lat="53.4372790" lon="-6.1222360">
    <ele>11.8</ele>
    <time>2025-09-11T14:10:23Z</time>
   </trkpt>
   <trkpt lat="53.4373510" lon="-6.1222920">
    <ele>11.7</ele>
    <time>2025-09-11T14:10:28Z</time>
   </trkpt>
   <trkpt lat="53.4374130" lon="-6.1223640">
    <ele>12.0</ele>
    <time>2025-09-11T14:10:34Z</time>
   </trkpt>
   <trkpt lat="53.4374770" lon="-6.1224400">
    <ele>12.8</ele>
    <time>2025-09-11T14:10:39Z</time>
   </trkpt>
   <trkpt lat="53.4375360" lon="-6.1225220">
    <ele>13.0</ele>
    <time>2025-09-11T14:10:44Z</time>
   </trkpt>
   <trkpt lat="53.4376010" lon="-6.1225700">
    <ele>13.0</ele>
    <time>2025-09-11T14:10:50Z</time>
   </trkpt>
   <trkpt lat="53.4376770" lon="-6.1225940">
    <ele>12.7</ele>
    <time>2025-09-11T14:10:55Z</time>
   </trkpt>
   <trkpt lat="53.4377480" lon="-6.1226340">
    <ele>12.5</ele>
    <time>2025-09-11T14:11:00Z</time>
   </trkpt>
   <trkpt lat="53.4378180" lon="-6.1226540">
    <ele>12.4</ele>
    <time>2025-09-11T14:11:06Z</time>
   </trkpt>
   <trkpt lat="53.4378920" lon="-6.1226710">
    <ele>12.4</ele>
    <time>2025-09-11T14:11:11Z</time>
   </trkpt>
   <trkpt lat="53.4379570" lon="-6.1227040">
    <ele>12.4</ele>
    <time>2025-09-11T14:11:16Z</time>
   </trkpt>
   <trkpt lat="53.4380220" lon="-6.1227460">
    <ele>12.4</ele>
    <time>2025-09-11T14:11:22Z</time>
   </trkpt>
   <trkpt lat="53.4380940" lon="-6.1227980">
    <ele>12.4</ele>
    <time>2025-09-11T14:11:27Z</time>
   </trkpt>
   <trkpt lat="53.4381630" lon="-6.1228530">
    <ele>12.4</ele>
    <time>2025-09-11T14:11:32Z</time>
   </trkpt>
   <trkpt lat="53.4382550" lon="-6.1228670">
    <ele>12.4</ele>
    <time>2025-09-11T14:11:38Z</time>
   </trkpt>
   <trkpt lat="53.4383370" lon="-6.1228860">
    <ele>12.4</ele>
    <time>2025-09-11T14:11:43Z</time>
   </trkpt>
   <trkpt lat="53.4384090" lon="-6.1229190">
    <ele>12.4</ele>
    <time>2025-09-11T14:11:49Z</time>
   </trkpt>
   <trkpt lat="53.4384890" lon="-6.1229340">
    <ele>12.4</ele>
    <time>2025-09-11T14:11:54Z</time>
   </trkpt>
   <trkpt lat="53.4385660" lon="-6.1229610">
    <ele>12.4</ele>
    <time>2025-09-11T14:11:59Z</time>
   </trkpt>
   <trkpt lat="53.4386400" lon="-6.1229730">
    <ele>12.4</ele>
    <time>2025-09-11T14:12:04Z</time>
   </trkpt>
   <trkpt lat="53.4387200" lon="-6.1229450">
    <ele>12.4</ele>
    <time>2025-09-11T14:12:10Z</time>
   </trkpt>
   <trkpt lat="53.4387830" lon="-6.1229200">
    <ele>12.4</ele>
    <time>2025-09-11T14:12:15Z</time>
   </trkpt>
   <trkpt lat="53.4388440" lon="-6.1228910">
    <ele>12.4</ele>
    <time>2025-09-11T14:12:21Z</time>
   </trkpt>
   <trkpt lat="53.4389120" lon="-6.1228720">
    <ele>12.3</ele>
    <time>2025-09-11T14:12:26Z</time>
   </trkpt>
   <trkpt lat="53.4389850" lon="-6.1228630">
    <ele>12.2</ele>
    <time>2025-09-11T14:12:31Z</time>
   </trkpt>
   <trkpt lat="53.4390640" lon="-6.1228370">
    <ele>12.2</ele>
    <time>2025-09-11T14:12:37Z</time>
   </trkpt>
   <trkpt lat="53.4391450" lon="-6.1228200">
    <ele>12.2</ele>
    <time>2025-09-11T14:12:42Z</time>
   </trkpt>
   <trkpt lat="53.4392270" lon="-6.1228230">
    <ele>12.1</ele>
    <time>2025-09-11T14:12:47Z</time>
   </trkpt>
   <trkpt lat="53.4392980" lon="-6.1228350">
    <ele>12.1</ele>
    <time>2025-09-11T14:12:53Z</time>
   </trkpt>
   <trkpt lat="53.4393720" lon="-6.1228460">
    <ele>12.1</ele>
    <time>2025-09-11T14:12:58Z</time>
   </trkpt>
   <trkpt lat="53.4394630" lon="-6.1228570">
    <ele>12.1</ele>
    <time>2025-09-11T14:13:04Z</time>
   </trkpt>
   <trkpt lat="53.4395360" lon="-6.1228740">
    <ele>12.1</ele>
    <time>2025-09-11T14:13:09Z</time>
   </trkpt>
   <trkpt lat="53.4396070" lon="-6.1228980">
    <ele>12.1</ele>
    <time>2025-09-11T14:13:14Z</time>
   </trkpt>
   <trkpt lat="53.4396750" lon="-6.1229140">
    <ele>12.1</ele>
    <time>2025-09-11T14:13:20Z</time>
   </trkpt>
   <trkpt lat="53.4397530" lon="-6.1228880">
    <ele>11.5</ele>
    <time>2025-09-11T14:13:25Z</time>
   </trkpt>
   <trkpt lat="53.4398240" lon="-6.1228500">
    <ele>11.3</ele>
    <time>2025-09-11T14:13:30Z</time>
   </trkpt>
   <trkpt lat="53.4399030" lon="-6.1227820">
    <ele>11.2</ele>
    <time>2025-09-11T14:13:36Z</time>
   </trkpt>
   <trkpt lat="53.4399660" lon="-6.1227590">
    <ele>11.2</ele>
    <time>2025-09-11T14:13:41Z</time>
   </trkpt>
   <trkpt lat="53.4400270" lon="-6.1227640">
    <ele>11.2</ele>
    <time>2025-09-11T14:13:47Z</time>
   </trkpt>
   <trkpt lat="53.4400970" lon="-6.1227920">
    <ele>11.1</ele>
    <time>2025-09-11T14:13:52Z</time>
   </trkpt>
   <trkpt lat="53.4401680" lon="-6.1228060">
    <ele>11.1</ele>
    <time>2025-09-11T14:13:58Z</time>
   </trkpt>
   <trkpt lat="53.4402370" lon="-6.1228170">
    <ele>11.1</ele>
    <time>2025-09-11T14:14:03Z</time>
   </trkpt>
   <trkpt lat="53.4403020" lon="-6.1228650">
    <ele>11.1</ele>
    <time>2025-09-11T14:14:08Z</time>
   </trkpt>
   <trkpt lat="53.4403760" lon="-6.1228830">
    <ele>11.1</ele>
    <time>2025-09-11T14:14:14Z</time>
   </trkpt>
   <trkpt lat="53.4404630" lon="-6.1229030">
    <ele>11.1</ele>
    <time>2025-09-11T14:14:19Z</time>
   </trkpt>
   <trkpt lat="53.4405420" lon="-6.1229060">
    <ele>11.1</ele>
    <time>2025-09-11T14:14:25Z</time>
   </trkpt>
   <trkpt lat="53.4406130" lon="-6.1229450">
    <ele>11.1</ele>
    <time>2025-09-11T14:14:30Z</time>
   </trkpt>
   <trkpt lat="53.4406870" lon="-6.1229730">
    <ele>11.1</ele>
    <time>2025-09-11T14:14:36Z</time>
   </trkpt>
   <trkpt lat="53.4407590" lon="-6.1229780">
    <ele>11.1</ele>
    <time>2025-09-11T14:14:41Z</time>
   </trkpt>
   <trkpt lat="53.4408380" lon="-6.1229900">
    <ele>11.1</ele>
    <time>2025-09-11T14:14:46Z</time>
   </trkpt>
   <trkpt lat="53.4409180" lon="-6.1230060">
    <ele>11.1</ele>
    <time>2025-09-11T14:14:52Z</time>
   </trkpt>
   <trkpt lat="53.4409940" lon="-6.1229760">
    <ele>11.1</ele>
    <time>2025-09-11T14:14:57Z</time>
   </trkpt>
   <trkpt lat="53.4410700" lon="-6.1229620">
    <ele>11.3</ele>
    <time>2025-09-11T14:15:02Z</time>
   </trkpt>
   <trkpt lat="53.4411490" lon="-6.1229580">
    <ele>11.4</ele>
    <time>2025-09-11T14:15:08Z</time>
   </trkpt>
   <trkpt lat="53.4412200" lon="-6.1229440">
    <ele>11.4</ele>
    <time>2025-09-11T14:15:13Z</time>
   </trkpt>
   <trkpt lat="53.4412960" lon="-6.1229300">
    <ele>11.5</ele>
    <time>2025-09-11T14:15:19Z</time>
   </trkpt>
   <trkpt lat="53.4413740" lon="-6.1229070">
    <ele>11.3</ele>
    <time>2025-09-11T14:15:24Z</time>
   </trkpt>
   <trkpt lat="53.4414500" lon="-6.1228690">
    <ele>11.1</ele>
    <time>2025-09-11T14:15:29Z</time>
   </trkpt>
   <trkpt lat="53.4415210" lon="-6.1228550">
    <ele>11.1</ele>
    <time>2025-09-11T14:15:35Z</time>
   </trkpt>
   <trkpt lat="53.4415900" lon="-6.1229010">
    <ele>11.4</ele>
    <time>2025-09-11T14:15:40Z</time>
   </trkpt>
   <trkpt lat="53.4416440" lon="-6.1229680">
    <ele>11.4</ele>
    <time>2025-09-11T14:15:46Z</time>
   </trkpt>
   <trkpt lat="53.4417060" lon="-6.1230310">
    <ele>11.4</ele>
    <time>2025-09-11T14:15:51Z</time>
   </trkpt>
   <trkpt lat="53.4417730" lon="-6.1231020">
    <ele>11.6</ele>
    <time>2025-09-11T14:15:57Z</time>
   </trkpt>
   <trkpt lat="53.4418410" lon="-6.1231580">
    <ele>11.6</ele>
    <time>2025-09-11T14:16:02Z</time>
   </trkpt>
   <trkpt lat="53.4419100" lon="-6.1232010">
    <ele>11.8</ele>
    <time>2025-09-11T14:16:07Z</time>
   </trkpt>
   <trkpt lat="53.4419690" lon="-6.1232640">
    <ele>11.7</ele>
    <time>2025-09-11T14:16:13Z</time>
   </trkpt>
   <trkpt lat="53.4420340" lon="-6.1233260">
    <ele>11.6</ele>
    <time>2025-09-11T14:16:18Z</time>
   </trkpt>
   <trkpt lat="53.4421060" lon="-6.1234330">
    <ele>11.1</ele>
    <time>2025-09-11T14:16:24Z</time>
   </trkpt>
   <trkpt lat="53.4421610" lon="-6.1235140">
    <ele>10.7</ele>
    <time>2025-09-11T14:16:29Z</time>
   </trkpt>
   <trkpt lat="53.4422260" lon="-6.1235670">
    <ele>10.5</ele>
    <time>2025-09-11T14:16:35Z</time>
   </trkpt>
   <trkpt lat="53.4423040" lon="-6.1236100">
    <ele>10.2</ele>
    <time>2025-09-11T14:16:40Z</time>
   </trkpt>
   <trkpt lat="53.4423790" lon="-6.1236690">
    <ele>10.2</ele>
    <time>2025-09-11T14:16:46Z</time>
   </trkpt>
   <trkpt lat="53.4424510" lon="-6.1237160">
    <ele>10.4</ele>
    <time>2025-09-11T14:16:51Z</time>
   </trkpt>
   <trkpt lat="53.4425220" lon="-6.1237530">
    <ele>10.5</ele>
    <time>2025-09-11T14:16:56Z</time>
   </trkpt>
   <trkpt lat="53.4425840" lon="-6.1238030">
    <ele>10.6</ele>
    <time>2025-09-11T14:17:02Z</time>
   </trkpt>
   <trkpt lat="53.4426530" lon="-6.1238810">
    <ele>10.7</ele>
    <time>2025-09-11T14:17:07Z</time>
   </trkpt>
   <trkpt lat="53.4427210" lon="-6.1239450">
    <ele>10.9</ele>
    <time>2025-09-11T14:17:12Z</time>
   </trkpt>
   <trkpt lat="53.4427820" lon="-6.1240210">
    <ele>11.0</ele>
    <time>2025-09-11T14:17:18Z</time>
   </trkpt>
   <trkpt lat="53.4428410" lon="-6.1240830">
    <ele>11.1</ele>
    <time>2025-09-11T14:17:23Z</time>
   </trkpt>
   <trkpt lat="53.4429080" lon="-6.1241450">
    <ele>11.1</ele>
    <time>2025-09-11T14:17:29Z</time>
   </trkpt>
   <trkpt lat="53.4429800" lon="-6.1242010">
    <ele>11.2</ele>
    <time>2025-09-11T14:17:34Z</time>
   </trkpt>
   <trkpt lat="53.4430420" lon="-6.1242600">
    <ele>11.4</ele>
    <time>2025-09-11T14:17:39Z</time>
   </trkpt>
   <trkpt lat="53.4431160" lon="-6.1243100">
    <ele>11.8</ele>
    <time>2025-09-11T14:17:45Z</time>
   </trkpt>
   <trkpt lat="53.4431820" lon="-6.1243780">
    <ele>12.0</ele>
    <time>2025-09-11T14:17:51Z</time>
   </trkpt>
   <trkpt lat="53.4432480" lon="-6.1244240">
    <ele>11.9</ele>
    <time>2025-09-11T14:17:56Z</time>
   </trkpt>
   <trkpt lat="53.4433260" lon="-6.1244760">
    <ele>12.1</ele>
    <time>2025-09-11T14:18:01Z</time>
   </trkpt>
   <trkpt lat="53.4433890" lon="-6.1245530">
    <ele>12.4</ele>
    <time>2025-09-11T14:18:07Z</time>
   </trkpt>
   <trkpt lat="53.4434580" lon="-6.1246150">
    <ele>12.2</ele>
    <time>2025-09-11T14:18:12Z</time>
   </trkpt>
   <trkpt lat="53.4435230" lon="-6.1246760">
    <ele>12.2</ele>
    <time>2025-09-11T14:18:17Z</time>
   </trkpt>
   <trkpt lat="53.4435720" lon="-6.1247680">
    <ele>11.9</ele>
    <time>2025-09-11T14:18:23Z</time>
   </trkpt>
   <trkpt lat="53.4436150" lon="-6.1248830">
    <ele>11.3</ele>
    <time>2025-09-11T14:18:28Z</time>
   </trkpt>
   <trkpt lat="53.4436550" lon="-6.1250000">
    <ele>11.3</ele>
    <time>2025-09-11T14:18:34Z</time>
   </trkpt>
   <trkpt lat="53.4437010" lon="-6.1251160">
    <ele>11.9</ele>
    <time>2025-09-11T14:18:39Z</time>
   </trkpt>
   <trkpt lat="53.4437530" lon="-6.1252040">
    <ele>12.2</ele>
    <time>2025-09-11T14:18:44Z</time>
   </trkpt>
   <trkpt lat="53.4438130" lon="-6.1252900">
    <ele>11.6</ele>
    <time>2025-09-11T14:18:50Z</time>
   </trkpt>
   <trkpt lat="53.4438580" lon="-6.1253880">
    <ele>11.0</ele>
    <time>2025-09-11T14:18:55Z</time>
   </trkpt>
   <trkpt lat="53.4438920" lon="-6.1255000">
    <ele>11.6</ele>
    <time>2025-09-11T14:19:01Z</time>
   </trkpt>
   <trkpt lat="53.4439260" lon="-6.1256180">
    <ele>12.2</ele>
    <time>2025-09-11T14:19:06Z</time>
   </trkpt>
   <trkpt lat="53.4439550" lon="-6.1257260">
    <ele>12.3</ele>
    <time>2025-09-11T14:19:11Z</time>
   </trkpt>
   <trkpt lat="53.4439870" lon="-6.1258410">
    <ele>12.4</ele>
    <time>2025-09-11T14:19:17Z</time>
   </trkpt>
   <trkpt lat="53.4440130" lon="-6.1259560">
    <ele>12.3</ele>
    <time>2025-09-11T14:19:22Z</time>
   </trkpt>
   <trkpt lat="53.4440490" lon="-6.1260610">
    <ele>12.6</ele>
    <time>2025-09-11T14:19:28Z</time>
   </trkpt>
   <trkpt lat="53.4440910" lon="-6.1261680">
    <ele>12.9</ele>
    <time>2025-09-11T14:19:33Z</time>
   </trkpt>
   <trkpt lat="53.4441140" lon="-6.1262840">
    <ele>13.1</ele>
    <time>2025-09-11T14:19:39Z</time>
   </trkpt>
   <trkpt lat="53.4441550" lon="-6.1263920">
    <ele>13.1</ele>
    <time>2025-09-11T14:19:44Z</time>
   </trkpt>
   <trkpt lat="53.4441900" lon="-6.1264750">
    <ele>12.2</ele>
    <time>2025-09-11T14:19:49Z</time>
   </trkpt>
   <trkpt lat="53.4442310" lon="-6.1265750">
    <ele>10.9</ele>
    <time>2025-09-11T14:19:54Z</time>
   </trkpt>
   <trkpt lat="53.4442750" lon="-6.1266760">
    <ele>12.1</ele>
    <time>2025-09-11T14:20:00Z</time>
   </trkpt>
   <trkpt lat="53.4443250" lon="-6.1267720">
    <ele>12.8</ele>
    <time>2025-09-11T14:20:05Z</time>
   </trkpt>
   <trkpt lat="53.4443850" lon="-6.1268470">
    <ele>13.0</ele>
    <time>2025-09-11T14:20:10Z</time>
   </trkpt>
   <trkpt lat="53.4444150" lon="-6.1269510">
    <ele>12.9</ele>
    <time>2025-09-11T14:20:15Z</time>
   </trkpt>
   <trkpt lat="53.4444630" lon="-6.1270490">
    <ele>12.1</ele>
    <time>2025-09-11T14:20:21Z</time>
   </trkpt>
   <trkpt lat="53.4445150" lon="-6.1271460">
    <ele>12.8</ele>
    <time>2025-09-11T14:20:26Z</time>
   </trkpt>
   <trkpt lat="53.4445630" lon="-6.1272500">
    <ele>13.0</ele>
    <time>2025-09-11T14:20:32Z</time>
   </trkpt>
   <trkpt lat="53.4446070" lon="-6.1273760">
    <ele>13.1</ele>
    <time>2025-09-11T14:20:37Z</time>
   </trkpt>
   <trkpt lat="53.4446670" lon="-6.1274620">
    <ele>13.1</ele>
    <time>2025-09-11T14:20:43Z</time>
   </trkpt>
   <trkpt lat="53.4446760" lon="-6.1275380">
    <ele>12.9</ele>
    <time>2025-09-11T14:20:49Z</time>
   </trkpt>
   <trkpt lat="53.4446810" lon="-6.1276980">
    <ele>12.9</ele>
    <time>2025-09-11T14:20:54Z</time>
   </trkpt>
   <trkpt lat="53.4447060" lon="-6.1278240">
    <ele>12.9</ele>
    <time>2025-09-11T14:21:00Z</time>
   </trkpt>
   <trkpt lat="53.4447390" lon="-6.1279320">
    <ele>12.6</ele>
    <time>2025-09-11T14:21:05Z</time>
   </trkpt>
   <trkpt lat="53.4447800" lon="-6.1280570">
    <ele>12.7</ele>
    <time>2025-09-11T14:21:10Z</time>
   </trkpt>
   <trkpt lat="53.4448250" lon="-6.1281750">
    <ele>12.7</ele>
    <time>2025-09-11T14:21:16Z</time>
   </trkpt>
   <trkpt lat="53.4448720" lon="-6.1282690">
    <ele>12.8</ele>
    <time>2025-09-11T14:21:21Z</time>
   </trkpt>
   <trkpt lat="53.4449130" lon="-6.1283600">
    <ele>13.2</ele>
    <time>2025-09-11T14:21:26Z</time>
   </trkpt>
   <trkpt lat="53.4449600" lon="-6.1284490">
    <ele>13.0</ele>
    <time>2025-09-11T14:21:32Z</time>
   </trkpt>
   <trkpt lat="53.4450150" lon="-6.1285360">
    <ele>12.7</ele>
    <time>2025-09-11T14:21:37Z</time>
   </trkpt>
   <trkpt lat="53.4450670" lon="-6.1286300">
    <ele>12.5</ele>
    <time>2025-09-11T14:21:43Z</time>
   </trkpt>
   <trkpt lat="53.4451300" lon="-6.1287130">
    <ele>12.1</ele>
    <time>2025-09-11T14:21:48Z</time>
   </trkpt>
   <trkpt lat="53.4451990" lon="-6.1287690">
    <ele>12.1</ele>
    <time>2025-09-11T14:21:53Z</time>
   </trkpt>
   <trkpt lat="53.4452670" lon="-6.1288360">
    <ele>12.4</ele>
    <time>2025-09-11T14:21:59Z</time>
   </trkpt>
   <trkpt lat="53.4453320" lon="-6.1288990">
    <ele>12.4</ele>
    <time>2025-09-11T14:22:04Z</time>
   </trkpt>
   <trkpt lat="53.4453950" lon="-6.1289680">
    <ele>11.4</ele>
    <time>2025-09-11T14:22:10Z</time>
   </trkpt>
   <trkpt lat="53.4454430" lon="-6.1290630">
    <ele>11.5</ele>
    <time>2025-09-11T14:22:15Z</time>
   </trkpt>
   <trkpt lat="53.4454850" lon="-6.1291690">
    <ele>10.7</ele>
    <time>2025-09-11T14:22:20Z</time>
   </trkpt>
   <trkpt lat="53.4455110" lon="-6.1292810">
    <ele>11.4</ele>
    <time>2025-09-11T14:22:26Z</time>
   </trkpt>
   <trkpt lat="53.4455260" lon="-6.1294020">
    <ele>10.4</ele>
    <time>2025-09-11T14:22:31Z</time>
   </trkpt>
   <trkpt lat="53.4455350" lon="-6.1295240">
    <ele>10.0</ele>
    <time>2025-09-11T14:22:36Z</time>
   </trkpt>
   <trkpt lat="53.4455480" lon="-6.1296750">
    <ele>9.8</ele>
    <time>2025-09-11T14:22:42Z</time>
   </trkpt>
   <trkpt lat="53.4455520" lon="-6.1298090">
    <ele>9.8</ele>
    <time>2025-09-11T14:22:47Z</time>
   </trkpt>
   <trkpt lat="53.4455840" lon="-6.1299310">
    <ele>9.8</ele>
    <time>2025-09-11T14:22:53Z</time>
   </trkpt>
   <trkpt lat="53.4456060" lon="-6.1300160">
    <ele>9.6</ele>
    <time>2025-09-11T14:22:58Z</time>
   </trkpt>
   <trkpt lat="53.4456280" lon="-6.1301490">
    <ele>8.8</ele>
    <time>2025-09-11T14:23:03Z</time>
   </trkpt>
   <trkpt lat="53.4456590" lon="-6.1302580">
    <ele>8.6</ele>
    <time>2025-09-11T14:23:08Z</time>
   </trkpt>
   <trkpt lat="53.4456900" lon="-6.1303580">
    <ele>8.4</ele>
    <time>2025-09-11T14:23:13Z</time>
   </trkpt>
   <trkpt lat="53.4457220" lon="-6.1304750">
    <ele>8.4</ele>
    <time>2025-09-11T14:23:19Z</time>
   </trkpt>
   <trkpt lat="53.4457620" lon="-6.1305810">
    <ele>9.2</ele>
    <time>2025-09-11T14:23:24Z</time>
   </trkpt>
   <trkpt lat="53.4457940" lon="-6.1306880">
    <ele>8.7</ele>
    <time>2025-09-11T14:23:30Z</time>
   </trkpt>
   <trkpt lat="53.4458410" lon="-6.1307880">
    <ele>8.3</ele>
    <time>2025-09-11T14:23:35Z</time>
   </trkpt>
   <trkpt lat="53.4458910" lon="-6.1308940">
    <ele>8.1</ele>
    <time>2025-09-11T14:23:41Z</time>
   </trkpt>
   <trkpt lat="53.4459570" lon="-6.1309750">
    <ele>8.0</ele>
    <time>2025-09-11T14:23:46Z</time>
   </trkpt>
   <trkpt lat="53.4459950" lon="-6.1310800">
    <ele>7.9</ele>
    <time>2025-09-11T14:23:52Z</time>
   </trkpt>
   <trkpt lat="53.4460220" lon="-6.1312030">
    <ele>7.9</ele>
    <time>2025-09-11T14:23:57Z</time>
   </trkpt>
   <trkpt lat="53.4460320" lon="-6.1313520">
    <ele>7.8</ele>
    <time>2025-09-11T14:24:02Z</time>
   </trkpt>
   <trkpt lat="53.4460420" lon="-6.1314900">
    <ele>7.8</ele>
    <time>2025-09-11T14:24:08Z</time>
   </trkpt>
   <trkpt lat="53.4460770" lon="-6.1315960">
    <ele>7.8</ele>
    <time>2025-09-11T14:24:13Z</time>
   </trkpt>
   <trkpt lat="53.4460960" lon="-6.1317140">
    <ele>7.8</ele>
    <time>2025-09-11T14:24:19Z</time>
   </trkpt>
   <trkpt lat="53.4461090" lon="-6.1318260">
    <ele>7.8</ele>
    <time>2025-09-11T14:24:24Z</time>
   </trkpt>
   <trkpt lat="53.4461220" lon="-6.1319630">
    <ele>7.8</ele>
    <time>2025-09-11T14:24:29Z</time>
   </trkpt>
   <trkpt lat="53.4461360" lon="-6.1321010">
    <ele>7.8</ele>
    <time>2025-09-11T14:24:35Z</time>
   </trkpt>
   <trkpt lat="53.4461350" lon="-6.1322130">
    <ele>7.8</ele>
    <time>2025-09-11T14:24:40Z</time>
   </trkpt>
   <trkpt lat="53.4461280" lon="-6.1323240">
    <ele>7.8</ele>
    <time>2025-09-11T14:24:46Z</time>
   </trkpt>
   <trkpt lat="53.4461430" lon="-6.1324490">
    <ele>7.8</ele>
    <time>2025-09-11T14:24:51Z</time>
   </trkpt>
   <trkpt lat="53.4461360" lon="-6.1325820">
    <ele>7.8</ele>
    <time>2025-09-11T14:24:56Z</time>
   </trkpt>
   <trkpt lat="53.4461130" lon="-6.1327140">
    <ele>7.2</ele>
    <time>2025-09-11T14:25:02Z</time>
   </trkpt>
   <trkpt lat="53.4461050" lon="-6.1328640">
    <ele>7.6</ele>
    <time>2025-09-11T14:25:07Z</time>
   </trkpt>
   <trkpt lat="53.4461060" lon="-6.1329910">
    <ele>7.8</ele>
    <time>2025-09-11T14:25:13Z</time>
   </trkpt>
   <trkpt lat="53.4461260" lon="-6.1331210">
    <ele>8.7</ele>
    <time>2025-09-11T14:25:18Z</time>
   </trkpt>
   <trkpt lat="53.4461450" lon="-6.1332460">
    <ele>9.4</ele>
    <time>2025-09-11T14:25:23Z</time>
   </trkpt>
   <trkpt lat="53.4461720" lon="-6.1333760">
    <ele>10.0</ele>
    <time>2025-09-11T14:25:29Z</time>
   </trkpt>
   <trkpt lat="53.4462110" lon="-6.1334880">
    <ele>10.3</ele>
    <time>2025-09-11T14:25:34Z</time>
   </trkpt>
   <trkpt lat="53.4462530" lon="-6.1335880">
    <ele>10.4</ele>
    <time>2025-09-11T14:25:40Z</time>
   </trkpt>
   <trkpt lat="53.4463000" lon="-6.1336900">
    <ele>10.4</ele>
    <time>2025-09-11T14:25:45Z</time>
   </trkpt>
   <trkpt lat="53.4463440" lon="-6.1337790">
    <ele>10.4</ele>
    <time>2025-09-11T14:25:51Z</time>
   </trkpt>
   <trkpt lat="53.4463950" lon="-6.1338650">
    <ele>11.4</ele>
    <time>2025-09-11T14:25:56Z</time>
   </trkpt>
   <trkpt lat="53.4464570" lon="-6.1339270">
    <ele>11.0</ele>
    <time>2025-09-11T14:26:02Z</time>
   </trkpt>
   <trkpt lat="53.4465340" lon="-6.1339680">
    <ele>10.6</ele>
    <time>2025-09-11T14:26:07Z</time>
   </trkpt>
   <trkpt lat="53.4466080" lon="-6.1340130">
    <ele>10.5</ele>
    <time>2025-09-11T14:26:12Z</time>
   </trkpt>
   <trkpt lat="53.4466720" lon="-6.1340820">
    <ele>10.5</ele>
    <time>2025-09-11T14:26:18Z</time>
   </trkpt>
   <trkpt lat="53.4467390" lon="-6.1341420">
    <ele>10.9</ele>
    <time>2025-09-11T14:26:24Z</time>
   </trkpt>
   <trkpt lat="53.4467980" lon="-6.1341960">
    <ele>11.3</ele>
    <time>2025-09-11T14:26:29Z</time>
   </trkpt>
   <trkpt lat="53.4468600" lon="-6.1342600">
    <ele>11.1</ele>
    <time>2025-09-11T14:26:35Z</time>
   </trkpt>
   <trkpt lat="53.4469300" lon="-6.1343190">
    <ele>11.8</ele>
    <time>2025-09-11T14:26:40Z</time>
   </trkpt>
   <trkpt lat="53.4470000" lon="-6.1343690">
    <ele>12.0</ele>
    <time>2025-09-11T14:26:45Z</time>
   </trkpt>
   <trkpt lat="53.4470620" lon="-6.1344240">
    <ele>11.8</ele>
    <time>2025-09-11T14:26:51Z</time>
   </trkpt>
   <trkpt lat="53.4471330" lon="-6.1344780">
    <ele>11.5</ele>
    <time>2025-09-11T14:26:56Z</time>
   </trkpt>
   <trkpt lat="53.4472020" lon="-6.1345210">
    <ele>11.3</ele>
    <time>2025-09-11T14:27:02Z</time>
   </trkpt>
   <trkpt lat="53.4472670" lon="-6.1345940">
    <ele>11.3</ele>
    <time>2025-09-11T14:27:07Z</time>
   </trkpt>
   <trkpt lat="53.4473390" lon="-6.1346440">
    <ele>11.3</ele>
    <time>2025-09-11T14:27:13Z</time>
   </trkpt>
   <trkpt lat="53.4474180" lon="-6.1346930">
    <ele>11.2</ele>
    <time>2025-09-11T14:27:18Z</time>
   </trkpt>
   <trkpt lat="53.4474830" lon="-6.1347210">
    <ele>11.2</ele>
    <time>2025-09-11T14:27:23Z</time>
   </trkpt>
   <trkpt lat="53.4475440" lon="-6.1347600">
    <ele>11.2</ele>
    <time>2025-09-11T14:27:28Z</time>
   </trkpt>
   <trkpt lat="53.4476130" lon="-6.1348370">
    <ele>11.2</ele>
    <time>2025-09-11T14:27:34Z</time>
   </trkpt>
   <trkpt lat="53.4476920" lon="-6.1348910">
    <ele>11.2</ele>
    <time>2025-09-11T14:27:39Z</time>
   </trkpt>
   <trkpt lat="53.4477480" lon="-6.1349770">
    <ele>11.2</ele>
    <time>2025-09-11T14:27:44Z</time>
   </trkpt>
   <trkpt lat="53.4478050" lon="-6.1350630">
    <ele>11.2</ele>
    <time>2025-09-11T14:27:50Z</time>
   </trkpt>
   <trkpt lat="53.4478560" lon="-6.1351350">
    <ele>11.2</ele>
    <time>2025-09-11T14:27:55Z</time>
   </trkpt>
   <trkpt lat="53.4479210" lon="-6.1352110">
    <ele>11.2</ele>
    <time>2025-09-11T14:28:01Z</time>
   </trkpt>
   <trkpt lat="53.4479760" lon="-6.1353070">
    <ele>11.2</ele>
    <time>2025-09-11T14:28:06Z</time>
   </trkpt>
   <trkpt lat="53.4480230" lon="-6.1354150">
    <ele>11.2</ele>
    <time>2025-09-11T14:28:12Z</time>
   </trkpt>
   <trkpt lat="53.4480730" lon="-6.1355200">
    <ele>11.2</ele>
    <time>2025-09-11T14:28:17Z</time>
   </trkpt>
   <trkpt lat="53.4481180" lon="-6.1356220">
    <ele>10.9</ele>
    <time>2025-09-11T14:28:22Z</time>
   </trkpt>
   <trkpt lat="53.4481390" lon="-6.1357560">
    <ele>10.4</ele>
    <time>2025-09-11T14:28:28Z</time>
   </trkpt>
   <trkpt lat="53.4481970" lon="-6.1358540">
    <ele>10.9</ele>
    <time>2025-09-11T14:28:33Z</time>
   </trkpt>
   <trkpt lat="53.4482460" lon="-6.1359520">
    <ele>11.1</ele>
    <time>2025-09-11T14:28:39Z</time>
   </trkpt>
   <trkpt lat="53.4482910" lon="-6.1360480">
    <ele>11.2</ele>
    <time>2025-09-11T14:28:44Z</time>
   </trkpt>
   <trkpt lat="53.4483400" lon="-6.1361320">
    <ele>11.2</ele>
    <time>2025-09-11T14:28:49Z</time>
   </trkpt>
   <trkpt lat="53.4483880" lon="-6.1362510">
    <ele>11.4</ele>
    <time>2025-09-11T14:28:55Z</time>
   </trkpt>
   <trkpt lat="53.4484190" lon="-6.1363720">
    <ele>11.3</ele>
    <time>2025-09-11T14:29:00Z</time>
   </trkpt>
   <trkpt lat="53.4484550" lon="-6.1364900">
    <ele>11.3</ele>
    <time>2025-09-11T14:29:05Z</time>
   </trkpt>
   <trkpt lat="53.4485190" lon="-6.1365190">
    <ele>11.2</ele>
    <time>2025-09-11T14:29:10Z</time>
   </trkpt>
   <trkpt lat="53.4485970" lon="-6.1364890">
    <ele>11.5</ele>
    <time>2025-09-11T14:29:16Z</time>
   </trkpt>
   <trkpt lat="53.4486640" lon="-6.1364960">
    <ele>11.5</ele>
    <time>2025-09-11T14:29:21Z</time>
   </trkpt>
   <trkpt lat="53.4487330" lon="-6.1365330">
    <ele>11.3</ele>
    <time>2025-09-11T14:29:26Z</time>
   </trkpt>
   <trkpt lat="53.4488000" lon="-6.1365520">
    <ele>11.5</ele>
    <time>2025-09-11T14:29:32Z</time>
   </trkpt>
   <trkpt lat="53.4488560" lon="-6.1365880">
    <ele>11.1</ele>
    <time>2025-09-11T14:29:37Z</time>
   </trkpt>
   <trkpt lat="53.4489240" lon="-6.1366010">
    <ele>10.9</ele>
    <time>2025-09-11T14:29:42Z</time>
   </trkpt>
   <trkpt lat="53.4489910" lon="-6.1366160">
    <ele>11.4</ele>
    <time>2025-09-11T14:29:47Z</time>
   </trkpt>
   <trkpt lat="53.4490520" lon="-6.1366420">
    <ele>11.4</ele>
    <time>2025-09-11T14:29:52Z</time>
   </trkpt>
   <trkpt lat="53.4491130" lon="-6.1367000">
    <ele>11.1</ele>
    <time>2025-09-11T14:29:57Z</time>
   </trkpt>
   <trkpt lat="53.4491780" lon="-6.1367890">
    <ele>10.9</ele>
    <time>2025-09-11T14:30:03Z</time>
   </trkpt>
   <trkpt lat="53.4492290" lon="-6.1368760">
    <ele>10.8</ele>
    <time>2025-09-11T14:30:08Z</time>
   </trkpt>
   <trkpt lat="53.4492890" lon="-6.1368200">
    <ele>10.7</ele>
    <time>2025-09-11T14:30:13Z</time>
   </trkpt>
   <trkpt lat="53.4493290" lon="-6.1368690">
    <ele>10.4</ele>
    <time>2025-09-11T14:30:19Z</time>
   </trkpt>
   <trkpt lat="53.4493640" lon="-6.1369990">
    <ele>10.0</ele>
    <time>2025-09-11T14:30:24Z</time>
   </trkpt>
   <trkpt lat="53.4494100" lon="-6.1370990">
    <ele>10.2</ele>
    <time>2025-09-11T14:30:29Z</time>
   </trkpt>
   <trkpt lat="53.4494580" lon="-6.1371970">
    <ele>10.3</ele>
    <time>2025-09-11T14:30:34Z</time>
   </trkpt>
   <trkpt lat="53.4495100" lon="-6.1372980">
    <ele>10.8</ele>
    <time>2025-09-11T14:30:39Z</time>
   </trkpt>
   <trkpt lat="53.4495770" lon="-6.1373770">
    <ele>10.9</ele>
    <time>2025-09-11T14:30:44Z</time>
   </trkpt>
   <trkpt lat="53.4496340" lon="-6.1374810">
    <ele>10.6</ele>
    <time>2025-09-11T14:30:50Z</time>
   </trkpt>
   <trkpt lat="53.4496810" lon="-6.1375560">
    <ele>10.1</ele>
    <time>2025-09-11T14:30:55Z</time>
   </trkpt>
   <trkpt lat="53.4497370" lon="-6.1376310">
    <ele>9.5</ele>
    <time>2025-09-11T14:31:00Z</time>
   </trkpt>
   <trkpt lat="53.4497660" lon="-6.1377350">
    <ele>9.2</ele>
    <time>2025-09-11T14:31:05Z</time>
   </trkpt>
   <trkpt lat="53.4497880" lon="-6.1378490">
    <ele>9.4</ele>
    <time>2025-09-11T14:31:11Z</time>
   </trkpt>
   <trkpt lat="53.4498490" lon="-6.1379300">
    <ele>9.6</ele>
    <time>2025-09-11T14:31:16Z</time>
   </trkpt>
   <trkpt lat="53.4499000" lon="-6.1380190">
    <ele>9.3</ele>
    <time>2025-09-11T14:31:21Z</time>
   </trkpt>
   <trkpt lat="53.4499450" lon="-6.1381250">
    <ele>8.0</ele>
    <time>2025-09-11T14:31:27Z</time>
   </trkpt>
   <trkpt lat="53.4499860" lon="-6.1382300">
    <ele>7.6</ele>
    <time>2025-09-11T14:31:32Z</time>
   </trkpt>
   <trkpt lat="53.4500280" lon="-6.1383320">
    <ele>8.2</ele>
    <time>2025-09-11T14:31:37Z</time>
   </trkpt>
   <trkpt lat="53.4500890" lon="-6.1384530">
    <ele>8.2</ele>
    <time>2025-09-11T14:31:43Z</time>
   </trkpt>
   <trkpt lat="53.4501380" lon="-6.1385550">
    <ele>7.4</ele>
    <time>2025-09-11T14:31:48Z</time>
   </trkpt>
   <trkpt lat="53.4501840" lon="-6.1386430">
    <ele>7.1</ele>
    <time>2025-09-11T14:31:54Z</time>
   </trkpt>
   <trkpt lat="53.4502480" lon="-6.1386970">
    <ele>7.0</ele>
    <time>2025-09-11T14:31:59Z</time>
   </trkpt>
   <trkpt lat="53.4502970" lon="-6.1387860">
    <ele>7.0</ele>
    <time>2025-09-11T14:32:05Z</time>
   </trkpt>
   <trkpt lat="53.4503450" lon="-6.1388850">
    <ele>6.9</ele>
    <time>2025-09-11T14:32:10Z</time>
   </trkpt>
   <trkpt lat="53.4503960" lon="-6.1389760">
    <ele>6.9</ele>
    <time>2025-09-11T14:32:16Z</time>
   </trkpt>
   <trkpt lat="53.4504440" lon="-6.1390750">
    <ele>7.1</ele>
    <time>2025-09-11T14:32:21Z</time>
   </trkpt>
   <trkpt lat="53.4504790" lon="-6.1391790">
    <ele>7.2</ele>
    <time>2025-09-11T14:32:27Z</time>
   </trkpt>
   <trkpt lat="53.4505170" lon="-6.1392830">
    <ele>7.1</ele>
    <time>2025-09-11T14:32:32Z</time>
   </trkpt>
   <trkpt lat="53.4505580" lon="-6.1393920">
    <ele>7.0</ele>
    <time>2025-09-11T14:32:38Z</time>
   </trkpt>
   <trkpt lat="53.4506140" lon="-6.1394820">
    <ele>7.1</ele>
    <time>2025-09-11T14:32:43Z</time>
   </trkpt>
   <trkpt lat="53.4506620" lon="-6.1395560">
    <ele>7.1</ele>
    <time>2025-09-11T14:32:49Z</time>
   </trkpt>
   <trkpt lat="53.4507080" lon="-6.1396520">
    <ele>7.0</ele>
    <time>2025-09-11T14:32:54Z</time>
   </trkpt>
   <trkpt lat="53.4507590" lon="-6.1397380">
    <ele>6.9</ele>
    <time>2025-09-11T14:32:59Z</time>
   </trkpt>
   <trkpt lat="53.4508090" lon="-6.1398360">
    <ele>6.9</ele>
    <time>2025-09-11T14:33:04Z</time>
   </trkpt>
   <trkpt lat="53.4508490" lon="-6.1399330">
    <ele>6.9</ele>
    <time>2025-09-11T14:33:10Z</time>
   </trkpt>
   <trkpt lat="53.4508840" lon="-6.1400490">
    <ele>6.9</ele>
    <time>2025-09-11T14:33:15Z</time>
   </trkpt>
   <trkpt lat="53.4509260" lon="-6.1401420">
    <ele>6.9</ele>
    <time>2025-09-11T14:33:21Z</time>
   </trkpt>
   <trkpt lat="53.4509400" lon="-6.1402490">
    <ele>6.9</ele>
    <time>2025-09-11T14:33:26Z</time>
   </trkpt>
   <trkpt lat="53.4509510" lon="-6.1403620">
    <ele>6.9</ele>
    <time>2025-09-11T14:33:31Z</time>
   </trkpt>
   <trkpt lat="53.4509700" lon="-6.1404700">
    <ele>7.0</ele>
    <time>2025-09-11T14:33:36Z</time>
   </trkpt>
   <trkpt lat="53.4509930" lon="-6.1405800">
    <ele>7.0</ele>
    <time>2025-09-11T14:33:41Z</time>
   </trkpt>
   <trkpt lat="53.4510260" lon="-6.1406780">
    <ele>6.9</ele>
    <time>2025-09-11T14:33:46Z</time>
   </trkpt>
   <trkpt lat="53.4510460" lon="-6.1407860">
    <ele>6.9</ele>
    <time>2025-09-11T14:33:52Z</time>
   </trkpt>
   <trkpt lat="53.4510600" lon="-6.1409020">
    <ele>6.9</ele>
    <time>2025-09-11T14:33:57Z</time>
   </trkpt>
   <trkpt lat="53.4510670" lon="-6.1410270">
    <ele>6.9</ele>
    <time>2025-09-11T14:34:02Z</time>
   </trkpt>
   <trkpt lat="53.4510770" lon="-6.1411340">
    <ele>6.9</ele>
    <time>2025-09-11T14:34:07Z</time>
   </trkpt>
   <trkpt lat="53.4510890" lon="-6.1412450">
    <ele>6.9</ele>
    <time>2025-09-11T14:34:12Z</time>
   </trkpt>
   <trkpt lat="53.4511100" lon="-6.1413610">
    <ele>7.0</ele>
    <time>2025-09-11T14:34:18Z</time>
   </trkpt>
   <trkpt lat="53.4511230" lon="-6.1414710">
    <ele>7.0</ele>
    <time>2025-09-11T14:34:23Z</time>
   </trkpt>
   <trkpt lat="53.4511230" lon="-6.1415780">
    <ele>7.0</ele>
    <time>2025-09-11T14:34:28Z</time>
   </trkpt>
   <trkpt lat="53.4511250" lon="-6.1417000">
    <ele>6.9</ele>
    <time>2025-09-11T14:34:33Z</time>
   </trkpt>
   <trkpt lat="53.4511130" lon="-6.1418030">
    <ele>6.9</ele>
    <time>2025-09-11T14:34:38Z</time>
   </trkpt>
   <trkpt lat="53.4511100" lon="-6.1419180">
    <ele>6.8</ele>
    <time>2025-09-11T14:34:44Z</time>
   </trkpt>
   <trkpt lat="53.4510840" lon="-6.1420530">
    <ele>6.9</ele>
    <time>2025-09-11T14:34:49Z</time>
   </trkpt>
   <trkpt lat="53.4510930" lon="-6.1421680">
    <ele>6.9</ele>
    <time>2025-09-11T14:34:54Z</time>
   </trkpt>
   <trkpt lat="53.4511170" lon="-6.1422790">
    <ele>6.6</ele>
    <time>2025-09-11T14:34:59Z</time>
   </trkpt>
   <trkpt lat="53.4511210" lon="-6.1423830">
    <ele>6.1</ele>
    <time>2025-09-11T14:35:05Z</time>
   </trkpt>
   <trkpt lat="53.4511080" lon="-6.1425060">
    <ele>5.9</ele>
    <time>2025-09-11T14:35:10Z</time>
   </trkpt>
   <trkpt lat="53.4511020" lon="-6.1426250">
    <ele>5.8</ele>
    <time>2025-09-11T14:35:15Z</time>
   </trkpt>
   <trkpt lat="53.4511040" lon="-6.1427350">
    <ele>5.7</ele>
    <time>2025-09-11T14:35:20Z</time>
   </trkpt>
   <trkpt lat="53.4511010" lon="-6.1428450">
    <ele>5.6</ele>
    <time>2025-09-11T14:35:25Z</time>
   </trkpt>
   <trkpt lat="53.4511130" lon="-6.1429540">
    <ele>5.7</ele>
    <time>2025-09-11T14:35:30Z</time>
   </trkpt>
   <trkpt lat="53.4511200" lon="-6.1430510">
    <ele>6.3</ele>
    <time>2025-09-11T14:35:35Z</time>
   </trkpt>
   <trkpt lat="53.4511200" lon="-6.1431620">
    <ele>6.8</ele>
    <time>2025-09-11T14:35:40Z</time>
   </trkpt>
   <trkpt lat="53.4511250" lon="-6.1432770">
    <ele>6.4</ele>
    <time>2025-09-11T14:35:45Z</time>
   </trkpt>
   <trkpt lat="53.4511420" lon="-6.1433970">
    <ele>5.9</ele>
    <time>2025-09-11T14:35:51Z</time>
   </trkpt>
   <trkpt lat="53.4511550" lon="-6.1435260">
    <ele>5.7</ele>
    <time>2025-09-11T14:35:56Z</time>
   </trkpt>
   <trkpt lat="53.4511660" lon="-6.1436530">
    <ele>5.6</ele>
    <time>2025-09-11T14:36:02Z</time>
   </trkpt>
   <trkpt lat="53.4511780" lon="-6.1437790">
    <ele>5.6</ele>
    <time>2025-09-11T14:36:07Z</time>
   </trkpt>
   <trkpt lat="53.4511890" lon="-6.1439030">
    <ele>5.5</ele>
    <time>2025-09-11T14:36:12Z</time>
   </trkpt>
   <trkpt lat="53.4512000" lon="-6.1440160">
    <ele>5.5</ele>
    <time>2025-09-11T14:36:18Z</time>
   </trkpt>
   <trkpt lat="53.4512250" lon="-6.1441500">
    <ele>5.5</ele>
    <time>2025-09-11T14:36:23Z</time>
   </trkpt>
   <trkpt lat="53.4512290" lon="-6.1442500">
    <ele>5.5</ele>
    <time>2025-09-11T14:36:28Z</time>
   </trkpt>
   <trkpt lat="53.4512130" lon="-6.1443550">
    <ele>6.0</ele>
    <time>2025-09-11T14:36:33Z</time>
   </trkpt>
   <trkpt lat="53.4511780" lon="-6.1444840">
    <ele>6.2</ele>
    <time>2025-09-11T14:36:39Z</time>
   </trkpt>
   <trkpt lat="53.4511430" lon="-6.1445750">
    <ele>6.3</ele>
    <time>2025-09-11T14:36:44Z</time>
   </trkpt>
   <trkpt lat="53.4511080" lon="-6.1446860">
    <ele>6.3</ele>
    <time>2025-09-11T14:36:49Z</time>
   </trkpt>
   <trkpt lat="53.4510990" lon="-6.1447930">
    <ele>6.3</ele>
    <time>2025-09-11T14:36:54Z</time>
   </trkpt>
   <trkpt lat="53.4510700" lon="-6.1448900">
    <ele>6.2</ele>
    <time>2025-09-11T14:37:00Z</time>
   </trkpt>
   <trkpt lat="53.4510730" lon="-6.1449950">
    <ele>6.1</ele>
    <time>2025-09-11T14:37:05Z</time>
   </trkpt>
   <trkpt lat="53.4511210" lon="-6.1451060">
    <ele>6.0</ele>
    <time>2025-09-11T14:37:11Z</time>
   </trkpt>
   <trkpt lat="53.4511560" lon="-6.1452220">
    <ele>5.9</ele>
    <time>2025-09-11T14:37:16Z</time>
   </trkpt>
   <trkpt lat="53.4511810" lon="-6.1453490">
    <ele>6.0</ele>
    <time>2025-09-11T14:37:22Z</time>
   </trkpt>
   <trkpt lat="53.4511830" lon="-6.1454740">
    <ele>6.0</ele>
    <time>2025-09-11T14:37:27Z</time>
   </trkpt>
   <trkpt lat="53.4511730" lon="-6.1455870">
    <ele>6.1</ele>
    <time>2025-09-11T14:37:32Z</time>
   </trkpt>
   <trkpt lat="53.4511630" lon="-6.1457090">
    <ele>6.3</ele>
    <time>2025-09-11T14:37:38Z</time>
   </trkpt>
   <trkpt lat="53.4511570" lon="-6.1458450">
    <ele>6.4</ele>
    <time>2025-09-11T14:37:43Z</time>
   </trkpt>
   <trkpt lat="53.4511510" lon="-6.1459710">
    <ele>6.6</ele>
    <time>2025-09-11T14:37:48Z</time>
   </trkpt>
   <trkpt lat="53.4511440" lon="-6.1460910">
    <ele>6.7</ele>
    <time>2025-09-11T14:37:54Z</time>
   </trkpt>
   <trkpt lat="53.4511520" lon="-6.1462220">
    <ele>6.8</ele>
    <time>2025-09-11T14:37:59Z</time>
   </trkpt>
   <trkpt lat="53.4511610" lon="-6.1463480">
    <ele>6.9</ele>
    <time>2025-09-11T14:38:05Z</time>
   </trkpt>
   <trkpt lat="53.4511620" lon="-6.1464750">
    <ele>6.7</ele>
    <time>2025-09-11T14:38:10Z</time>
   </trkpt>
   <trkpt lat="53.4511710" lon="-6.1465990">
    <ele>6.7</ele>
    <time>2025-09-11T14:38:16Z</time>
   </trkpt>
   <trkpt lat="53.4511810" lon="-6.1467230">
    <ele>6.6</ele>
    <time>2025-09-11T14:38:21Z</time>
   </trkpt>
   <trkpt lat="53.4511860" lon="-6.1468510">
    <ele>6.6</ele>
    <time>2025-09-11T14:38:26Z</time>
   </trkpt>
   <trkpt lat="53.4511960" lon="-6.1469750">
    <ele>6.6</ele>
    <time>2025-09-11T14:38:32Z</time>
   </trkpt>
   <trkpt lat="53.4512150" lon="-6.1470740">
    <ele>7.4</ele>
    <time>2025-09-11T14:38:37Z</time>
   </trkpt>
   <trkpt lat="53.4512280" lon="-6.1471960">
    <ele>7.8</ele>
    <time>2025-09-11T14:38:43Z</time>
   </trkpt>
   <trkpt lat="53.4512270" lon="-6.1473240">
    <ele>6.9</ele>
    <time>2025-09-11T14:38:49Z</time>
   </trkpt>
   <trkpt lat="53.4512320" lon="-6.1474290">
    <ele>7.0</ele>
    <time>2025-09-11T14:38:54Z</time>
   </trkpt>
   <trkpt lat="53.4512390" lon="-6.1475360">
    <ele>6.9</ele>
    <time>2025-09-11T14:38:59Z</time>
   </trkpt>
   <trkpt lat="53.4512420" lon="-6.1476600">
    <ele>6.7</ele>
    <time>2025-09-11T14:39:04Z</time>
   </trkpt>
   <trkpt lat="53.4512500" lon="-6.1477810">
    <ele>6.7</ele>
    <time>2025-09-11T14:39:10Z</time>
   </trkpt>
   <trkpt lat="53.4512720" lon="-6.1479030">
    <ele>6.1</ele>
    <time>2025-09-11T14:39:15Z</time>
   </trkpt>
   <trkpt lat="53.4512800" lon="-6.1480210">
    <ele>7.0</ele>
    <time>2025-09-11T14:39:21Z</time>
   </trkpt>
   <trkpt lat="53.4512510" lon="-6.1481280">
    <ele>6.8</ele>
    <time>2025-09-11T14:39:26Z</time>
   </trkpt>
   <trkpt lat="53.4512450" lon="-6.1482490">
    <ele>7.2</ele>
    <time>2025-09-11T14:39:31Z</time>
   </trkpt>
   <trkpt lat="53.4512710" lon="-6.1483580">
    <ele>7.4</ele>
    <time>2025-09-11T14:39:36Z</time>
   </trkpt>
   <trkpt lat="53.4512890" lon="-6.1484560">
    <ele>7.5</ele>
    <time>2025-09-11T14:39:41Z</time>
   </trkpt>
   <trkpt lat="53.4513140" lon="-6.1485690">
    <ele>7.8</ele>
    <time>2025-09-11T14:39:46Z</time>
   </trkpt>
   <trkpt lat="53.4513250" lon="-6.1486880">
    <ele>7.5</ele>
    <time>2025-09-11T14:39:51Z</time>
   </trkpt>
   <trkpt lat="53.4513490" lon="-6.1487950">
    <ele>7.3</ele>
    <time>2025-09-11T14:39:57Z</time>
   </trkpt>
   <trkpt lat="53.4513670" lon="-6.1489010">
    <ele>7.2</ele>
    <time>2025-09-11T14:40:02Z</time>
   </trkpt>
   <trkpt lat="53.4513820" lon="-6.1490100">
    <ele>7.2</ele>
    <time>2025-09-11T14:40:07Z</time>
   </trkpt>
   <trkpt lat="53.4513970" lon="-6.1491250">
    <ele>7.1</ele>
    <time>2025-09-11T14:40:12Z</time>
   </trkpt>
   <trkpt lat="53.4514210" lon="-6.1492230">
    <ele>7.1</ele>
    <time>2025-09-11T14:40:17Z</time>
   </trkpt>
   <trkpt lat="53.4514490" lon="-6.1493400">
    <ele>7.1</ele>
    <time>2025-09-11T14:40:23Z</time>
   </trkpt>
   <trkpt lat="53.4514580" lon="-6.1494630">
    <ele>7.1</ele>
    <time>2025-09-11T14:40:28Z</time>
   </trkpt>
   <trkpt lat="53.4514840" lon="-6.1495770">
    <ele>7.1</ele>
    <time>2025-09-11T14:40:33Z</time>
   </trkpt>
   <trkpt lat="53.4514940" lon="-6.1496820">
    <ele>7.1</ele>
    <time>2025-09-11T14:40:39Z</time>
   </trkpt>
   <trkpt lat="53.4515110" lon="-6.1497840">
    <ele>7.2</ele>
    <time>2025-09-11T14:40:44Z</time>
   </trkpt>
   <trkpt lat="53.4515260" lon="-6.1499040">
    <ele>7.2</ele>
    <time>2025-09-11T14:40:50Z</time>
   </trkpt>
   <trkpt lat="53.4515600" lon="-6.1500230">
    <ele>7.1</ele>
    <time>2025-09-11T14:40:55Z</time>
   </trkpt>
   <trkpt lat="53.4516010" lon="-6.1501310">
    <ele>7.2</ele>
    <time>2025-09-11T14:41:01Z</time>
   </trkpt>
   <trkpt lat="53.4516450" lon="-6.1502240">
    <ele>7.2</ele>
    <time>2025-09-11T14:41:06Z</time>
   </trkpt>
   <trkpt lat="53.4516800" lon="-6.1503310">
    <ele>7.2</ele>
    <time>2025-09-11T14:41:11Z</time>
   </trkpt>
   <trkpt lat="53.4517110" lon="-6.1504320">
    <ele>7.1</ele>
    <time>2025-09-11T14:41:17Z</time>
   </trkpt>
   <trkpt lat="53.4517510" lon="-6.1505410">
    <ele>7.1</ele>
    <time>2025-09-11T14:41:22Z</time>
   </trkpt>
   <trkpt lat="53.4517870" lon="-6.1506620">
    <ele>7.0</ele>
    <time>2025-09-11T14:41:27Z</time>
   </trkpt>
   <trkpt lat="53.4518310" lon="-6.1507590">
    <ele>6.4</ele>
    <time>2025-09-11T14:41:33Z</time>
   </trkpt>
   <trkpt lat="53.4518600" lon="-6.1508460">
    <ele>7.0</ele>
    <time>2025-09-11T14:41:38Z</time>
   </trkpt>
   <trkpt lat="53.4519100" lon="-6.1509130">
    <ele>7.3</ele>
    <time>2025-09-11T14:41:43Z</time>
   </trkpt>
   <trkpt lat="53.4519630" lon="-6.1509960">
    <ele>7.4</ele>
    <time>2025-09-11T14:41:49Z</time>
   </trkpt>
   <trkpt lat="53.4519980" lon="-6.1510960">
    <ele>7.3</ele>
    <time>2025-09-11T14:41:54Z</time>
   </trkpt>
   <trkpt lat="53.4520120" lon="-6.1512160">
    <ele>7.0</ele>
    <time>2025-09-11T14:42:00Z</time>
   </trkpt>
   <trkpt lat="53.4520250" lon="-6.1513260">
    <ele>7.0</ele>
    <time>2025-09-11T14:42:05Z</time>
   </trkpt>
   <trkpt lat="53.4520830" lon="-6.1514060">
    <ele>6.5</ele>
    <time>2025-09-11T14:42:11Z</time>
   </trkpt>
   <trkpt lat="53.4521530" lon="-6.1514770">
    <ele>6.3</ele>
    <time>2025-09-11T14:42:16Z</time>
   </trkpt>
   <trkpt lat="53.4522070" lon="-6.1515610">
    <ele>6.2</ele>
    <time>2025-09-11T14:42:21Z</time>
   </trkpt>
   <trkpt lat="53.4522550" lon="-6.1516470">
    <ele>6.1</ele>
    <time>2025-09-11T14:42:27Z</time>
   </trkpt>
   <trkpt lat="53.4522610" lon="-6.1517560">
    <ele>5.8</ele>
    <time>2025-09-11T14:42:32Z</time>
   </trkpt>
   <trkpt lat="53.4522630" lon="-6.1518730">
    <ele>5.9</ele>
    <time>2025-09-11T14:42:37Z</time>
   </trkpt>
   <trkpt lat="53.4522640" lon="-6.1519870">
    <ele>6.1</ele>
    <time>2025-09-11T14:42:42Z</time>
   </trkpt>
   <trkpt lat="53.4522620" lon="-6.1521060">
    <ele>5.7</ele>
    <time>2025-09-11T14:42:47Z</time>
   </trkpt>
   <trkpt lat="53.4522760" lon="-6.1521960">
    <ele>5.6</ele>
    <time>2025-09-11T14:42:52Z</time>
   </trkpt>
   <trkpt lat="53.4522880" lon="-6.1523180">
    <ele>5.6</ele>
    <time>2025-09-11T14:42:58Z</time>
   </trkpt>
   <trkpt lat="53.4522810" lon="-6.1524360">
    <ele>5.6</ele>
    <time>2025-09-11T14:43:03Z</time>
   </trkpt>
   <trkpt lat="53.4522750" lon="-6.1525560">
    <ele>5.6</ele>
    <time>2025-09-11T14:43:09Z</time>
   </trkpt>
   <trkpt lat="53.4522840" lon="-6.1526830">
    <ele>5.6</ele>
    <time>2025-09-11T14:43:15Z</time>
   </trkpt>
   <trkpt lat="53.4522860" lon="-6.1528100">
    <ele>5.6</ele>
    <time>2025-09-11T14:43:20Z</time>
   </trkpt>
   <trkpt lat="53.4522690" lon="-6.1529160">
    <ele>5.5</ele>
    <time>2025-09-11T14:43:25Z</time>
   </trkpt>
   <trkpt lat="53.4522520" lon="-6.1530370">
    <ele>5.7</ele>
    <time>2025-09-11T14:43:31Z</time>
   </trkpt>
   <trkpt lat="53.4522590" lon="-6.1531360">
    <ele>5.7</ele>
    <time>2025-09-11T14:43:36Z</time>
   </trkpt>
   <trkpt lat="53.4522450" lon="-6.1532550">
    <ele>5.7</ele>
    <time>2025-09-11T14:43:41Z</time>
   </trkpt>
   <trkpt lat="53.4522360" lon="-6.1533730">
    <ele>5.7</ele>
    <time>2025-09-11T14:43:47Z</time>
   </trkpt>
   <trkpt lat="53.4522300" lon="-6.1534760">
    <ele>5.7</ele>
    <time>2025-09-11T14:43:52Z</time>
   </trkpt>
   <trkpt lat="53.4522110" lon="-6.1535780">
    <ele>5.7</ele>
    <time>2025-09-11T14:43:57Z</time>
   </trkpt>
   <trkpt lat="53.4521920" lon="-6.1536870">
    <ele>5.7</ele>
    <time>2025-09-11T14:44:02Z</time>
   </trkpt>
   <trkpt lat="53.4521890" lon="-6.1538070">
    <ele>5.6</ele>
    <time>2025-09-11T14:44:07Z</time>
   </trkpt>
   <trkpt lat="53.4521610" lon="-6.1538670">
    <ele>5.6</ele>
    <time>2025-09-11T14:44:13Z</time>
   </trkpt>
   <trkpt lat="53.4521670" lon="-6.1539540">
    <ele>5.6</ele>
    <time>2025-09-11T14:44:34Z</time>
   </trkpt>
   <trkpt lat="53.4521570" lon="-6.1540760">
    <ele>5.6</ele>
    <time>2025-09-11T14:44:40Z</time>
   </trkpt>
   <trkpt lat="53.4521710" lon="-6.1542010">
    <ele>5.4</ele>
    <time>2025-09-11T14:44:45Z</time>
   </trkpt>
   <trkpt lat="53.4521720" lon="-6.1542970">
    <ele>5.3</ele>
    <time>2025-09-11T14:44:50Z</time>
   </trkpt>
   <trkpt lat="53.4521610" lon="-6.1543830">
    <ele>5.2</ele>
    <time>2025-09-11T14:45:04Z</time>
   </trkpt>
   <trkpt lat="53.4521450" lon="-6.1544650">
    <ele>5.2</ele>
    <time>2025-09-11T14:45:20Z</time>
   </trkpt>
   <trkpt lat="53.4521400" lon="-6.1545780">
    <ele>5.3</ele>
    <time>2025-09-11T14:45:25Z</time>
   </trkpt>
   <trkpt lat="53.4521200" lon="-6.1547120">
    <ele>5.3</ele>
    <time>2025-09-11T14:45:31Z</time>
   </trkpt>
   <trkpt lat="53.4521340" lon="-6.1547840">
    <ele>5.5</ele>
    <time>2025-09-11T14:45:52Z</time>
   </trkpt>
   <trkpt lat="53.4521190" lon="-6.1548650">
    <ele>5.5</ele>
    <time>2025-09-11T14:46:06Z</time>
   </trkpt>
   <trkpt lat="53.4520990" lon="-6.1549470">
    <ele>5.3</ele>
    <time>2025-09-11T14:46:12Z</time>
   </trkpt>
   <trkpt lat="53.4520510" lon="-6.1549900">
    <ele>5.5</ele>
    <time>2025-09-11T14:46:27Z</time>
   </trkpt>
   <trkpt lat="53.4519840" lon="-6.1550010">
    <ele>5.6</ele>
    <time>2025-09-11T14:46:32Z</time>
   </trkpt>
   <trkpt lat="53.4519270" lon="-6.1550010">
    <ele>5.7</ele>
    <time>2025-09-11T14:46:38Z</time>
   </trkpt>
   <trkpt lat="53.4518550" lon="-6.1550100">
    <ele>5.5</ele>
    <time>2025-09-11T14:46:43Z</time>
   </trkpt>
   <trkpt lat="53.4517900" lon="-6.1550170">
    <ele>6.5</ele>
    <time>2025-09-11T14:46:48Z</time>
   </trkpt>
   <trkpt lat="53.4517240" lon="-6.1550280">
    <ele>6.9</ele>
    <time>2025-09-11T14:46:53Z</time>
   </trkpt>
   <trkpt lat="53.4516540" lon="-6.1550220">
    <ele>6.3</ele>
    <time>2025-09-11T14:46:58Z</time>
   </trkpt>
   <trkpt lat="53.4515830" lon="-6.1550240">
    <ele>6.2</ele>
    <time>2025-09-11T14:47:03Z</time>
   </trkpt>
   <trkpt lat="53.4515160" lon="-6.1550110">
    <ele>6.3</ele>
    <time>2025-09-11T14:47:08Z</time>
   </trkpt>
   <trkpt lat="53.4514530" lon="-6.1550010">
    <ele>6.5</ele>
    <time>2025-09-11T14:47:13Z</time>
   </trkpt>
   <trkpt lat="53.4513840" lon="-6.1550020">
    <ele>6.8</ele>
    <time>2025-09-11T14:47:18Z</time>
   </trkpt>
   <trkpt lat="53.4513090" lon="-6.1550060">
    <ele>7.2</ele>
    <time>2025-09-11T14:47:24Z</time>
   </trkpt>
   <trkpt lat="53.4512650" lon="-6.1550820">
    <ele>7.5</ele>
    <time>2025-09-11T14:47:29Z</time>
   </trkpt>
   <trkpt lat="53.4512740" lon="-6.1552100">
    <ele>7.8</ele>
    <time>2025-09-11T14:47:34Z</time>
   </trkpt>
   <trkpt lat="53.4512740" lon="-6.1553040">
    <ele>7.9</ele>
    <time>2025-09-11T14:47:39Z</time>
   </trkpt>
   <trkpt lat="53.4512560" lon="-6.1554060">
    <ele>8.2</ele>
    <time>2025-09-11T14:47:44Z</time>
   </trkpt>
   <trkpt lat="53.4512310" lon="-6.1555090">
    <ele>8.3</ele>
    <time>2025-09-11T14:47:50Z</time>
   </trkpt>
   <trkpt lat="53.4512460" lon="-6.1556420">
    <ele>8.5</ele>
    <time>2025-09-11T14:47:55Z</time>
   </trkpt>
   <trkpt lat="53.4512350" lon="-6.1557320">
    <ele>8.7</ele>
    <time>2025-09-11T14:48:08Z</time>
   </trkpt>
   <trkpt lat="53.4512340" lon="-6.1558830">
    <ele>8.6</ele>
    <time>2025-09-11T14:48:13Z</time>
   </trkpt>
   <trkpt lat="53.4512150" lon="-6.1559860">
    <ele>8.6</ele>
    <time>2025-09-11T14:48:18Z</time>
   </trkpt>
   <trkpt lat="53.4511850" lon="-6.1560930">
    <ele>9.3</ele>
    <time>2025-09-11T14:48:24Z</time>
   </trkpt>
   <trkpt lat="53.4511620" lon="-6.1561930">
    <ele>9.5</ele>
    <time>2025-09-11T14:48:29Z</time>
   </trkpt>
   <trkpt lat="53.4511770" lon="-6.1562830">
    <ele>9.6</ele>
    <time>2025-09-11T14:48:34Z</time>
   </trkpt>
   <trkpt lat="53.4511310" lon="-6.1562980">
    <ele>9.7</ele>
    <time>2025-09-11T14:48:40Z</time>
   </trkpt>
   <trkpt lat="53.4510620" lon="-6.1562660">
    <ele>9.8</ele>
    <time>2025-09-11T14:48:45Z</time>
   </trkpt>
   <trkpt lat="53.4510060" lon="-6.1562280">
    <ele>9.8</ele>
    <time>2025-09-11T14:48:51Z</time>
   </trkpt>
   <trkpt lat="53.4509750" lon="-6.1561670">
    <ele>9.8</ele>
    <time>2025-09-11T14:49:00Z</time>
   </trkpt>
   <trkpt lat="53.4508920" lon="-6.1561710">
    <ele>11.1</ele>
    <time>2025-09-11T14:49:05Z</time>
   </trkpt>
   <trkpt lat="53.4508130" lon="-6.1561770">
    <ele>12.3</ele>
    <time>2025-09-11T14:49:10Z</time>
   </trkpt>
   <trkpt lat="53.4507670" lon="-6.1561160">
    <ele>12.7</ele>
    <time>2025-09-11T14:49:16Z</time>
   </trkpt>
   <trkpt lat="53.4507400" lon="-6.1560280">
    <ele>12.8</ele>
    <time>2025-09-11T14:49:21Z</time>
   </trkpt>
   <trkpt lat="53.4506730" lon="-6.1560010">
    <ele>13.0</ele>
    <time>2025-09-11T14:49:26Z</time>
   </trkpt>
   <trkpt lat="53.4506960" lon="-6.1559140">
    <ele>13.1</ele>
    <time>2025-09-11T14:49:32Z</time>
   </trkpt>
   <trkpt lat="53.4507260" lon="-6.1558490">
    <ele>12.9</ele>
    <time>2025-09-11T14:49:48Z</time>
   </trkpt>
   <trkpt lat="53.4506730" lon="-6.1557520">
    <ele>13.2</ele>
    <time>2025-09-11T14:49:53Z</time>
   </trkpt>
   <trkpt lat="53.4506000" lon="-6.1557320">
    <ele>13.9</ele>
    <time>2025-09-11T14:49:58Z</time>
   </trkpt>
   <trkpt lat="53.4505410" lon="-6.1557100">
    <ele>14.0</ele>
    <time>2025-09-11T14:50:03Z</time>
   </trkpt>
   <trkpt lat="53.4504890" lon="-6.1556910">
    <ele>13.9</ele>
    <time>2025-09-11T14:50:09Z</time>
   </trkpt>
   <trkpt lat="53.4504710" lon="-6.1557880">
    <ele>14.3</ele>
    <time>2025-09-11T14:50:14Z</time>
   </trkpt>
   <trkpt lat="53.4504580" lon="-6.1559020">
    <ele>14.9</ele>
    <time>2025-09-11T14:50:19Z</time>
   </trkpt>
   <trkpt lat="53.4504410" lon="-6.1560060">
    <ele>14.7</ele>
    <time>2025-09-11T14:50:25Z</time>
   </trkpt>
   <trkpt lat="53.4504240" lon="-6.1561100">
    <ele>15.1</ele>
    <time>2025-09-11T14:50:30Z</time>
   </trkpt>
   <trkpt lat="53.4504020" lon="-6.1561770">
    <ele>15.4</ele>
    <time>2025-09-11T14:50:35Z</time>
   </trkpt>
   <trkpt lat="53.4503830" lon="-6.1562540">
    <ele>15.5</ele>
    <time>2025-09-11T14:50:41Z</time>
   </trkpt>
   <trkpt lat="53.4503760" lon="-6.1563750">
    <ele>15.6</ele>
    <time>2025-09-11T14:50:46Z</time>
   </trkpt>
   <trkpt lat="53.4503520" lon="-6.1564770">
    <ele>15.9</ele>
    <time>2025-09-11T14:50:51Z</time>
   </trkpt>
   <trkpt lat="53.4503190" lon="-6.1565690">
    <ele>16.0</ele>
    <time>2025-09-11T14:50:56Z</time>
   </trkpt>
   <trkpt lat="53.4503170" lon="-6.1566560">
    <ele>16.2</ele>
    <time>2025-09-11T14:51:02Z</time>
   </trkpt>
   <trkpt lat="53.4502990" lon="-6.1567630">
    <ele>16.1</ele>
    <time>2025-09-11T14:51:08Z</time>
   </trkpt>
   <trkpt lat="53.4502860" lon="-6.1568440">
    <ele>15.9</ele>
    <time>2025-09-11T14:51:13Z</time>
   </trkpt>
   <trkpt lat="53.4503230" lon="-6.1568970">
    <ele>15.8</ele>
    <time>2025-09-11T14:51:45Z</time>
   </trkpt>
   <trkpt lat="53.4503910" lon="-6.1569020">
    <ele>14.2</ele>
    <time>2025-09-11T14:51:50Z</time>
   </trkpt>
   <trkpt lat="53.4504530" lon="-6.1569060">
    <ele>13.1</ele>
    <time>2025-09-11T14:51:55Z</time>
   </trkpt>
   <trkpt lat="53.4505030" lon="-6.1569290">
    <ele>12.2</ele>
    <time>2025-09-11T14:52:00Z</time>
   </trkpt>
   <trkpt lat="53.4505570" lon="-6.1569550">
    <ele>11.0</ele>
    <time>2025-09-11T14:52:06Z</time>
   </trkpt>
   <trkpt lat="53.4506080" lon="-6.1569720">
    <ele>10.7</ele>
    <time>2025-09-11T14:52:11Z</time>
   </trkpt>
   <trkpt lat="53.4506490" lon="-6.1570070">
    <ele>10.7</ele>
    <time>2025-09-11T14:52:16Z</time>
   </trkpt>
   <trkpt lat="53.4506940" lon="-6.1570630">
    <ele>11.1</ele>
    <time>2025-09-11T14:52:21Z</time>
   </trkpt>
   <trkpt lat="53.4507470" lon="-6.1571060">
    <ele>10.9</ele>
    <time>2025-09-11T14:52:26Z</time>
   </trkpt>
   <trkpt lat="53.4508070" lon="-6.1571130">
    <ele>10.5</ele>
    <time>2025-09-11T14:52:31Z</time>
   </trkpt>
   <trkpt lat="53.4508710" lon="-6.1571540">
    <ele>9.4</ele>
    <time>2025-09-11T14:52:36Z</time>
   </trkpt>
   <trkpt lat="53.4509180" lon="-6.1572270">
    <ele>8.9</ele>
    <time>2025-09-11T14:52:42Z</time>
   </trkpt>
   <trkpt lat="53.4509640" lon="-6.1572530">
    <ele>8.9</ele>
    <time>2025-09-11T14:52:49Z</time>
   </trkpt>
   <trkpt lat="53.4510370" lon="-6.1572570">
    <ele>9.0</ele>
    <time>2025-09-11T14:52:54Z</time>
   </trkpt>
   <trkpt lat="53.4510810" lon="-6.1571760">
    <ele>9.2</ele>
    <time>2025-09-11T14:52:59Z</time>
   </trkpt>
   <trkpt lat="53.4510790" lon="-6.1570910">
    <ele>9.1</ele>
    <time>2025-09-11T14:53:05Z</time>
   </trkpt>
   <trkpt lat="53.4510630" lon="-6.1570120">
    <ele>9.0</ele>
    <time>2025-09-11T14:53:11Z</time>
   </trkpt>
  </trkseg>
 </trk>
</gpx>
